Home > Products > Valid Products > TAF

000
FTUS44 KHGX 072131 AAB
TAFCXO
TAF AMD
KCXO 072131Z 0722/0818 16014KT P6SM VCSH SCT045 SCT080
      TEMPO 0722/0723 VRB20KT 6SM TSRA BKN030CB
     FM080000 16007KT P6SM SCT250
     FM080800 16004KT P6SM SCT008 BKN025
     FM081500 18012KT P6SM SCT250=



000
FTUS44 KHGX 072131 AAB
TAFCXO
TAF AMD
KCXO 072131Z 0722/0818 16014KT P6SM VCSH SCT045 SCT080
      TEMPO 0722/0723 VRB20KT 6SM TSRA BKN030CB
     FM080000 16007KT P6SM SCT250
     FM080800 16004KT P6SM SCT008 BKN025
     FM081500 18012KT P6SM SCT250=



000
FTUS44 KHGX 072130 AAB
TAFCLL
TAF AMD
KCLL 072130Z 0722/0818 18015G20KT P6SM VCSH SCT045 BKN070 BKN080
      TEMPO 0722/0723 VRB20KT 6SM TSRA BKN030CB
     FM080200 17010KT P6SM SCT250
     FM080700 16009KT P6SM SCT008 BKN020
     FM081600 18014KT P6SM FEW050=



000
FTUS44 KHGX 072130 AAB
TAFCLL
TAF AMD
KCLL 072130Z 0722/0818 18015G20KT P6SM VCSH SCT045 BKN070 BKN080
      TEMPO 0722/0723 VRB20KT 6SM TSRA BKN030CB
     FM080200 17010KT P6SM SCT250
     FM080700 16009KT P6SM SCT008 BKN020
     FM081600 18014KT P6SM FEW050=



000
FTUS44 KHGX 072124 AAA
TAFLBX
TAF AMD
KLBX 072124Z 0721/0818 18017G24KT P6SM FEW035
      TEMPO 0722/0723 VRB20KT TSRA BKN030CB
     FM080200 17010KT P6SM FEW025 SCT250
     FM081200 16012KT P6SM FEW035=



000
FTUS44 KHGX 072124 AAA
TAFLBX
TAF AMD
KLBX 072124Z 0721/0818 18017G24KT P6SM FEW035
      TEMPO 0722/0723 VRB20KT TSRA BKN030CB
     FM080200 17010KT P6SM FEW025 SCT250
     FM081200 16012KT P6SM FEW035=



000
FTUS44 KHGX 071946 AAA
TAFCXO
TAF AMD
KCXO 071946Z 0720/0818 15015KT P6SM VCSH SCT045 BKN060
     FM080000 16007KT P6SM SCT250
     FM080800 16004KT P6SM SCT008 BKN025
     FM081500 18012KT P6SM SCT250=



000
FTUS44 KHGX 071946 AAA
TAFCXO
TAF AMD
KCXO 071946Z 0720/0818 15015KT P6SM VCSH SCT045 BKN060
     FM080000 16007KT P6SM SCT250
     FM080800 16004KT P6SM SCT008 BKN025
     FM081500 18012KT P6SM SCT250=



000
FTUS44 KHGX 071943 AAA
TAFSGR
TAF AMD
KSGR 071943Z 0720/0818 18017KT P6SM VCTS FEW035 SCT045CB
     FM072200 16007KT P6SM SCT250
     FM080900 16006KT P6SM BKN025
     FM081400 17011KT P6SM FEW035 SCT250=



000
FTUS44 KHGX 071943 AAA
TAFSGR
TAF AMD
KSGR 071943Z 0720/0818 18017KT P6SM VCTS FEW035 SCT045CB
     FM072200 16007KT P6SM SCT250
     FM080900 16006KT P6SM BKN025
     FM081400 17011KT P6SM FEW035 SCT250=



000
FTUS44 KHGX 071902 AAA
TAFCLL
TAF AMD
KCLL 071902Z 0719/0818 17019KT P6SM VCSH SCT050
     FM080200 17010KT P6SM SCT250
     FM080700 16009KT P6SM SCT008 BKN020
     FM081600 18014KT P6SM FEW050=



000
FTUS44 KHGX 071902 AAA
TAFCLL
TAF AMD
KCLL 071902Z 0719/0818 17019KT P6SM VCSH SCT050
     FM080200 17010KT P6SM SCT250
     FM080700 16009KT P6SM SCT008 BKN020
     FM081600 18014KT P6SM FEW050=



000
FTUS44 KHGX 071902 AAA
TAFCLL
TAF AMD
KCLL 071902Z 0719/0818 17019KT P6SM VCSH SCT050
     FM080200 17010KT P6SM SCT250
     FM080700 16009KT P6SM SCT008 BKN020
     FM081600 18014KT P6SM FEW050=



000
FTUS44 KHGX 071901 AAA
TAFUTS
TAF AMD
KUTS 071901Z 0719/0818 19014KT P6SM VCSH SCT040
     FM080100 17007KT P6SM SCT250
     FM080900 17006KT P6SM BKN015
     FM081400 18014KT P6SM FEW050=



000
FTUS44 KHGX 071901 AAA
TAFUTS
TAF AMD
KUTS 071901Z 0719/0818 19014KT P6SM VCSH SCT040
     FM080100 17007KT P6SM SCT250
     FM080900 17006KT P6SM BKN015
     FM081400 18014KT P6SM FEW050=



000
FTUS44 KHGX 071901 AAA
TAFUTS
TAF AMD
KUTS 071901Z 0719/0818 19014KT P6SM VCSH SCT040
     FM080100 17007KT P6SM SCT250
     FM080900 17006KT P6SM BKN015
     FM081400 18014KT P6SM FEW050=



000
FTUS44 KHGX 071746
TAFSGR
TAF
KSGR 071746Z 0718/0818 18017KT P6SM FEW035 SCT045
     FM080200 16009KT P6SM SCT250
     FM080900 16008KT P6SM BKN025
     FM081400 17011KT P6SM FEW035 SCT250=



000
FTUS44 KHGX 071746
TAFGLS
TAF
KGLS 071746Z 0718/0818 18015KT P6SM FEW030
     FM080900 17014KT P6SM VCSH SCT025 SCT250=



000
FTUS44 KHGX 071746
TAFCXO
TAF
KCXO 071746Z 0718/0818 18016KT P6SM VCSH FEW040
     FM072300 17007KT P6SM SCT250
     FM080800 16004KT P6SM SCT008 BKN025
     FM081500 18012KT P6SM SCT250=



000
FTUS44 KHGX 071746
TAFLBX
TAF
KLBX 071746Z 0718/0818 18015KT P6SM FEW040 SCT250
     FM080200 17010KT P6SM FEW025 SCT250
     FM081200 16012KT P6SM FEW035=



000
FTUS44 KHGX 071746
TAFHOU
TAF
KHOU 071746Z 0718/0818 17015KT P6SM SCT035 SCT250
     FM080200 16007KT P6SM FEW030 SCT250
     FM081500 17011KT P6SM FEW035=



000
FTUS44 KHGX 071746
TAFLBX
TAF
KLBX 071746Z 0718/0818 18015KT P6SM FEW040 SCT250
     FM080200 17010KT P6SM FEW025 SCT250
     FM081200 16012KT P6SM FEW035=



000
FTUS44 KHGX 071746
TAFSGR
TAF
KSGR 071746Z 0718/0818 18017KT P6SM FEW035 SCT045
     FM080200 16009KT P6SM SCT250
     FM080900 16008KT P6SM BKN025
     FM081400 17011KT P6SM FEW035 SCT250=



000
FTUS44 KHGX 071746
TAFHOU
TAF
KHOU 071746Z 0718/0818 17015KT P6SM SCT035 SCT250
     FM080200 16007KT P6SM FEW030 SCT250
     FM081500 17011KT P6SM FEW035=



000
FTUS44 KHGX 071746
TAFGLS
TAF
KGLS 071746Z 0718/0818 18015KT P6SM FEW030
     FM080900 17014KT P6SM VCSH SCT025 SCT250=



000
FTUS44 KHGX 071746
TAFCXO
TAF
KCXO 071746Z 0718/0818 18016KT P6SM VCSH FEW040
     FM072300 17007KT P6SM SCT250
     FM080800 16004KT P6SM SCT008 BKN025
     FM081500 18012KT P6SM SCT250=



000
FTUS44 KHGX 071740
TAFSGR
TAF
KSGR 071740Z 0718/0818 18017KT P6SM FEW035 SCT045
     FM080200 16009KT P6SM SCT025 SCT250=



000
FTUS44 KHGX 071740
TAFCXO
TAF
KCXO 071740Z 0718/0818 18016KT P6SM FEW040
     FM080100 17007KT P6SM SCT250
     FM080800 16004KT P6SM SCT008 BKN025=



000
FTUS44 KHGX 071740
TAFHOU
TAF
KHOU 071740Z 0718/0818 17015KT P6SM SCT035 SCT250
     FM080200 16007KT P6SM FEW030 SCT250
     FM081500 17011KT P6SM FEW035=



000
FTUS44 KHGX 071740
TAFLBX
TAF
KLBX 071740Z 0718/0818 18017KT P6SM FEW029 SCT035
     FM080200 17010KT P6SM SCT025 SCT250=



000
FTUS44 KHGX 071740
TAFHOU
TAF
KHOU 071740Z 0718/0818 17015KT P6SM SCT035 SCT250
     FM080200 16007KT P6SM FEW030 SCT250
     FM081500 17011KT P6SM FEW035=



000
FTUS44 KHGX 071740
TAFCXO
TAF
KCXO 071740Z 0718/0818 18016KT P6SM FEW040
     FM080100 17007KT P6SM SCT250
     FM080800 16004KT P6SM SCT008 BKN025=



000
FTUS44 KHGX 071740
TAFSGR
TAF
KSGR 071740Z 0718/0818 18017KT P6SM FEW035 SCT045
     FM080200 16009KT P6SM SCT025 SCT250=



000
FTUS44 KHGX 071740
TAFUTS
TAF
KUTS 071740Z 0718/0818 19014KT P6SM SCT040
     FM080100 17007KT P6SM SCT250
     FM080900 17006KT P6SM BKN015
     FM081400 18014KT P6SM FEW050=



000
FTUS44 KHGX 071740
TAFUTS
TAF
KUTS 071740Z 0718/0818 19014KT P6SM SCT040
     FM080100 17007KT P6SM SCT250
     FM080900 17006KT P6SM BKN015
     FM081400 18014KT P6SM FEW050=



000
FTUS44 KHGX 071740
TAFCLL
TAF
KCLL 071740Z 0718/0818 17019KT P6SM FEW050
     FM080200 17010KT P6SM SCT250
     FM080700 16009KT P6SM SCT008 BKN020
     FM081600 18014KT P6SM FEW050=



000
FTUS44 KHGX 071740
TAFLBX
TAF
KLBX 071740Z 0718/0818 18017KT P6SM FEW029 SCT035
     FM080200 17010KT P6SM SCT025 SCT250=



000
FTUS44 KHGX 071740
TAFGLS
TAF
KGLS 071740Z 0718/0818 18015KT P6SM SCT022=



000
FTUS44 KHGX 071740
TAFCLL
TAF
KCLL 071740Z 0718/0818 17019KT P6SM FEW050
     FM080200 17010KT P6SM SCT250
     FM080700 16009KT P6SM SCT008 BKN020
     FM081600 18014KT P6SM FEW050=



000
FTUS44 KHGX 071740
TAFGLS
TAF
KGLS 071740Z 0718/0818 18015KT P6SM SCT022=



000
FTUS44 KHGX 071740
TAFSGR
TAF
KSGR 071740Z 0718/0818 18017KT P6SM FEW035 SCT045
     FM080200 16009KT P6SM SCT025 SCT250=



000
FTUS44 KHGX 071740
TAFLBX
TAF
KLBX 071740Z 0718/0818 18017KT P6SM FEW029 SCT035
     FM080200 17010KT P6SM SCT025 SCT250=



000
FTUS44 KHGX 071740
TAFSGR
TAF
KSGR 071740Z 0718/0818 18017KT P6SM FEW035 SCT045
     FM080200 16009KT P6SM SCT025 SCT250=



000
FTUS44 KHGX 071740
TAFCLL
TAF
KCLL 071740Z 0718/0818 17019KT P6SM FEW050
     FM080200 17010KT P6SM SCT250
     FM080700 16009KT P6SM SCT008 BKN020
     FM081600 18014KT P6SM FEW050=



000
FTUS44 KHGX 071740
TAFIAH
TAF
KIAH 071740Z 0718/0824 17014KT P6SM SCT035 SCT250
     FM080200 16008KT P6SM FEW025 SCT250
     FM080900 17007KT P6SM SCT025
     FM081500 17011KT P6SM FEW035=



000
FTUS44 KHGX 071740
TAFHOU
TAF
KHOU 071740Z 0718/0818 17015KT P6SM SCT035 SCT250
     FM080200 16007KT P6SM FEW030 SCT250
     FM081500 17011KT P6SM FEW035=



000
FTUS44 KHGX 071740
TAFLBX
TAF
KLBX 071740Z 0718/0818 18017KT P6SM FEW029 SCT035
     FM080200 17010KT P6SM SCT025 SCT250=



000
FTUS44 KHGX 071740
TAFCXO
TAF
KCXO 071740Z 0718/0818 18016KT P6SM FEW040
     FM080100 17007KT P6SM SCT250
     FM080800 16004KT P6SM SCT008 BKN025=



000
FTUS44 KHGX 071740
TAFUTS
TAF
KUTS 071740Z 0718/0818 19014KT P6SM SCT040
     FM080100 17007KT P6SM SCT250
     FM080900 17006KT P6SM BKN015
     FM081400 18014KT P6SM FEW050=



000
FTUS44 KHGX 071740
TAFGLS
TAF
KGLS 071740Z 0718/0818 18015KT P6SM SCT022=



000
FTUS44 KHGX 071740
TAFIAH
TAF
KIAH 071740Z 0718/0824 17014KT P6SM SCT035 SCT250
     FM080200 16008KT P6SM FEW025 SCT250
     FM080900 17007KT P6SM SCT025
     FM081500 17011KT P6SM FEW035=



000
FTUS44 KHGX 071740
TAFCLL
TAF
KCLL 071740Z 0718/0818 17019KT P6SM FEW050
     FM080200 17010KT P6SM SCT250
     FM080700 16009KT P6SM SCT008 BKN020
     FM081600 18014KT P6SM FEW050=



000
FTUS44 KHGX 071740
TAFHOU
TAF
KHOU 071740Z 0718/0818 17015KT P6SM SCT035 SCT250
     FM080200 16007KT P6SM FEW030 SCT250
     FM081500 17011KT P6SM FEW035=



000
FTUS44 KHGX 071740
TAFCXO
TAF
KCXO 071740Z 0718/0818 18016KT P6SM FEW040
     FM080100 17007KT P6SM SCT250
     FM080800 16004KT P6SM SCT008 BKN025=



000
FTUS44 KHGX 071740
TAFIAH
TAF
KIAH 071740Z 0718/0824 17014KT P6SM SCT035 SCT250
     FM080200 16008KT P6SM FEW025 SCT250
     FM080900 17007KT P6SM SCT025
     FM081500 17011KT P6SM FEW035=



000
FTUS44 KHGX 071740
TAFIAH
TAF
KIAH 071740Z 0718/0824 17014KT P6SM SCT035 SCT250
     FM080200 16008KT P6SM FEW025 SCT250
     FM080900 17007KT P6SM SCT025
     FM081500 17011KT P6SM FEW035=



000
FTUS44 KHGX 071740
TAFGLS
TAF
KGLS 071740Z 0718/0818 18015KT P6SM SCT022=



000
FTUS44 KHGX 071740
TAFUTS
TAF
KUTS 071740Z 0718/0818 19014KT P6SM SCT040
     FM080100 17007KT P6SM SCT250
     FM080900 17006KT P6SM BKN015
     FM081400 18014KT P6SM FEW050=



000
FTUS44 KHGX 071507 AAA
TAFIAH
TAF AMD
KIAH 071507Z 0715/0818 18013KT P6SM SCT025 BKN250
     FM080200 16007KT P6SM SCT015 SCT250
     FM081500 16011KT P6SM SCT035=



000
FTUS44 KHGX 071507 AAA
TAFIAH
TAF AMD
KIAH 071507Z 0715/0818 18013KT P6SM SCT025 BKN250
     FM080200 16007KT P6SM SCT015 SCT250
     FM081500 16011KT P6SM SCT035=



000
FTUS44 KHGX 071507 AAA
TAFHOU
TAF AMD
KHOU 071507Z 0715/0812 17014KT P6SM SCT025 BKN250
     FM080200 16007KT P6SM SCT025 SCT250=



000
FTUS44 KHGX 071507 AAA
TAFHOU
TAF AMD
KHOU 071507Z 0715/0812 17014KT P6SM SCT025 BKN250
     FM080200 16007KT P6SM SCT025 SCT250=



000
FTUS44 KHGX 071507 AAA
TAFIAH
TAF AMD
KIAH 071507Z 0715/0818 18013KT P6SM SCT025 BKN250
     FM080200 16007KT P6SM SCT015 SCT250
     FM081500 16011KT P6SM SCT035=



000
FTUS44 KHGX 071507 AAA
TAFHOU
TAF AMD
KHOU 071507Z 0715/0812 17014KT P6SM SCT025 BKN250
     FM080200 16007KT P6SM SCT025 SCT250=



000
FTUS44 KHGX 071120
TAFLBX
TAF
KLBX 071120Z 0712/0812 17007KT P6SM VCSH SCT025
     FM071500 17018G25KT P6SM SCT035 SCT250
     FM080200 17010KT P6SM SCT025 SCT250=



000
FTUS44 KHGX 071120
TAFGLS
TAF
KGLS 071120Z 0712/0812 17012KT P6SM VCSH SCT020 BKN250
     FM071300 16016KT P6SM SCT025 SCT250=



000
FTUS44 KHGX 071120
TAFIAH
TAF
KIAH 071120Z 0712/0818 17007KT P6SM FEW012 SCT025 BKN250
     FM071500 17013G20KT P6SM SCT035 SCT250
     FM080200 16007KT P6SM SCT015 SCT250
     FM081500 16011KT P6SM SCT035=



000
FTUS44 KHGX 071120
TAFCLL
TAF
KCLL 071120Z 0712/0812 17006KT P6SM BKN010 BKN025
     FM071400 17012KT P6SM BKN025
     FM071600 17017G24KT P6SM SCT035 SCT250
     FM080200 17010KT P6SM SCT250
     FM080700 16010KT P6SM SCT008 BKN020=



000
FTUS44 KHGX 071120
TAFCLL
TAF
KCLL 071120Z 0712/0812 17006KT P6SM BKN010 BKN025
     FM071400 17012KT P6SM BKN025
     FM071600 17017G24KT P6SM SCT035 SCT250
     FM080200 17010KT P6SM SCT250
     FM080700 16010KT P6SM SCT008 BKN020=



000
FTUS44 KHGX 071120
TAFCXO
TAF
KCXO 071120Z 0712/0812 16004KT P6SM SCT015 BKN025
      TEMPO 0712/0713 5SM BR BKN015
     FM071500 17013G20KT P6SM SCT035 SCT250
     FM080100 17007KT P6SM SCT250
     FM080800 16004KT P6SM SCT008 BKN025=



000
FTUS44 KHGX 071120
TAFCXO
TAF
KCXO 071120Z 0712/0812 16004KT P6SM SCT015 BKN025
      TEMPO 0712/0713 5SM BR BKN015
     FM071500 17013G20KT P6SM SCT035 SCT250
     FM080100 17007KT P6SM SCT250
     FM080800 16004KT P6SM SCT008 BKN025=



000
FTUS44 KHGX 071120
TAFHOU
TAF
KHOU 071120Z 0712/0812 17006KT P6SM SCT020 BKN250
     FM071500 16014G21KT P6SM SCT035 SCT250
     FM080200 16007KT P6SM SCT025 SCT250=



000
FTUS44 KHGX 071120
TAFUTS
TAF
KUTS 071120Z 0712/0812 16005KT P6SM SCT008 BKN012 BKN020
     FM071400 17010KT P6SM BKN025
     FM071600 17013G20KT P6SM SCT035 SCT250
     FM080100 17007KT P6SM SCT250
     FM080900 17006KT P6SM BKN015=



000
FTUS44 KHGX 071120
TAFIAH
TAF
KIAH 071120Z 0712/0818 17007KT P6SM FEW012 SCT025 BKN250
     FM071500 17013G20KT P6SM SCT035 SCT250
     FM080200 16007KT P6SM SCT015 SCT250
     FM081500 16011KT P6SM SCT035=



000
FTUS44 KHGX 071120
TAFGLS
TAF
KGLS 071120Z 0712/0812 17012KT P6SM VCSH SCT020 BKN250
     FM071300 16016KT P6SM SCT025 SCT250=



000
FTUS44 KHGX 071120
TAFUTS
TAF
KUTS 071120Z 0712/0812 16005KT P6SM SCT008 BKN012 BKN020
     FM071400 17010KT P6SM BKN025
     FM071600 17013G20KT P6SM SCT035 SCT250
     FM080100 17007KT P6SM SCT250
     FM080900 17006KT P6SM BKN015=



000
FTUS44 KHGX 071120
TAFLBX
TAF
KLBX 071120Z 0712/0812 17007KT P6SM VCSH SCT025
     FM071500 17018G25KT P6SM SCT035 SCT250
     FM080200 17010KT P6SM SCT025 SCT250=



000
FTUS44 KHGX 071120
TAFLBX
TAF
KLBX 071120Z 0712/0812 17007KT P6SM VCSH SCT025
     FM071500 17018G25KT P6SM SCT035 SCT250
     FM080200 17010KT P6SM SCT025 SCT250=



000
FTUS44 KHGX 071120
TAFHOU
TAF
KHOU 071120Z 0712/0812 17006KT P6SM SCT020 BKN250
     FM071500 16014G21KT P6SM SCT035 SCT250
     FM080200 16007KT P6SM SCT025 SCT250=



000
FTUS44 KHGX 071120
TAFSGR
TAF
KSGR 071120Z 0712/0812 17006KT P6SM SCT015 BKN025
     FM071500 17016G23KT P6SM SCT035 SCT250
     FM080200 16009KT P6SM SCT025 SCT250=



000
FTUS44 KHGX 071120
TAFUTS
TAF
KUTS 071120Z 0712/0812 16005KT P6SM SCT008 BKN012 BKN020
     FM071400 17010KT P6SM BKN025
     FM071600 17013G20KT P6SM SCT035 SCT250
     FM080100 17007KT P6SM SCT250
     FM080900 17006KT P6SM BKN015=



000
FTUS44 KHGX 071120
TAFHOU
TAF
KHOU 071120Z 0712/0812 17006KT P6SM SCT020 BKN250
     FM071500 16014G21KT P6SM SCT035 SCT250
     FM080200 16007KT P6SM SCT025 SCT250=



000
FTUS44 KHGX 071120
TAFSGR
TAF
KSGR 071120Z 0712/0812 17006KT P6SM SCT015 BKN025
     FM071500 17016G23KT P6SM SCT035 SCT250
     FM080200 16009KT P6SM SCT025 SCT250=



000
FTUS44 KHGX 071120
TAFLBX
TAF
KLBX 071120Z 0712/0812 17007KT P6SM VCSH SCT025
     FM071500 17018G25KT P6SM SCT035 SCT250
     FM080200 17010KT P6SM SCT025 SCT250=



000
FTUS44 KHGX 071120
TAFGLS
TAF
KGLS 071120Z 0712/0812 17012KT P6SM VCSH SCT020 BKN250
     FM071300 16016KT P6SM SCT025 SCT250=



000
FTUS44 KHGX 071120
TAFUTS
TAF
KUTS 071120Z 0712/0812 16005KT P6SM SCT008 BKN012 BKN020
     FM071400 17010KT P6SM BKN025
     FM071600 17013G20KT P6SM SCT035 SCT250
     FM080100 17007KT P6SM SCT250
     FM080900 17006KT P6SM BKN015=



000
FTUS44 KHGX 071120
TAFIAH
TAF
KIAH 071120Z 0712/0818 17007KT P6SM FEW012 SCT025 BKN250
     FM071500 17013G20KT P6SM SCT035 SCT250
     FM080200 16007KT P6SM SCT015 SCT250
     FM081500 16011KT P6SM SCT035=



000
FTUS44 KHGX 071120
TAFSGR
TAF
KSGR 071120Z 0712/0812 17006KT P6SM SCT015 BKN025
     FM071500 17016G23KT P6SM SCT035 SCT250
     FM080200 16009KT P6SM SCT025 SCT250=



000
FTUS44 KHGX 071120
TAFGLS
TAF
KGLS 071120Z 0712/0812 17012KT P6SM VCSH SCT020 BKN250
     FM071300 16016KT P6SM SCT025 SCT250=



000
FTUS44 KHGX 071120
TAFHOU
TAF
KHOU 071120Z 0712/0812 17006KT P6SM SCT020 BKN250
     FM071500 16014G21KT P6SM SCT035 SCT250
     FM080200 16007KT P6SM SCT025 SCT250=



000
FTUS44 KHGX 071120
TAFCXO
TAF
KCXO 071120Z 0712/0812 16004KT P6SM SCT015 BKN025
      TEMPO 0712/0713 5SM BR BKN015
     FM071500 17013G20KT P6SM SCT035 SCT250
     FM080100 17007KT P6SM SCT250
     FM080800 16004KT P6SM SCT008 BKN025=



000
FTUS44 KHGX 071120
TAFSGR
TAF
KSGR 071120Z 0712/0812 17006KT P6SM SCT015 BKN025
     FM071500 17016G23KT P6SM SCT035 SCT250
     FM080200 16009KT P6SM SCT025 SCT250=



000
FTUS44 KHGX 071120
TAFIAH
TAF
KIAH 071120Z 0712/0818 17007KT P6SM FEW012 SCT025 BKN250
     FM071500 17013G20KT P6SM SCT035 SCT250
     FM080200 16007KT P6SM SCT015 SCT250
     FM081500 16011KT P6SM SCT035=



000
FTUS44 KHGX 071120
TAFCXO
TAF
KCXO 071120Z 0712/0812 16004KT P6SM SCT015 BKN025
      TEMPO 0712/0713 5SM BR BKN015
     FM071500 17013G20KT P6SM SCT035 SCT250
     FM080100 17007KT P6SM SCT250
     FM080800 16004KT P6SM SCT008 BKN025=



000
FTUS44 KHGX 071120
TAFCLL
TAF
KCLL 071120Z 0712/0812 17006KT P6SM BKN010 BKN025
     FM071400 17012KT P6SM BKN025
     FM071600 17017G24KT P6SM SCT035 SCT250
     FM080200 17010KT P6SM SCT250
     FM080700 16010KT P6SM SCT008 BKN020=



000
FTUS44 KHGX 071010 AAA
TAFCLL
TAF AMD
KCLL 071010Z 0710/0806 17006KT P6SM SCT008 BKN015
      TEMPO 0710/0713 OVC007
     FM071400 17013KT P6SM BKN025
     FM071600 17015G23KT P6SM SCT035 SCT250
     FM080200 17010KT P6SM SCT250=



000
FTUS44 KHGX 071010 AAA
TAFCLL
TAF AMD
KCLL 071010Z 0710/0806 17006KT P6SM SCT008 BKN015
      TEMPO 0710/0713 OVC007
     FM071400 17013KT P6SM BKN025
     FM071600 17015G23KT P6SM SCT035 SCT250
     FM080200 17010KT P6SM SCT250=



000
FTUS44 KHGX 070924 AAA
TAFIAH
TAF AMD
KIAH 070924Z 0709/0812 17006KT P6SM SCT025 BKN250
     FM071500 17012G20KT P6SM SCT035 SCT250
     FM080200 16008KT P6SM SCT250=



000
FTUS44 KHGX 070924 AAA
TAFIAH
TAF AMD
KIAH 070924Z 0709/0812 17006KT P6SM SCT025 BKN250
     FM071500 17012G20KT P6SM SCT035 SCT250
     FM080200 16008KT P6SM SCT250=



000
FTUS44 KHGX 070555 CCA
TAFGLS
TAF COR
KGLS 070555Z 0706/0806 17014KT P6SM VCSH SCT020 BKN250
     FM071300 16015KT P6SM SCT025 SCT250=



000
FTUS44 KHGX 070555 CCA
TAFGLS
TAF COR
KGLS 070555Z 0706/0806 17014KT P6SM VCSH SCT020 BKN250
     FM071300 16015KT P6SM SCT025 SCT250=



000
FTUS44 KHGX 070555 CCA
TAFGLS
TAF COR
KGLS 070555Z 0706/0806 17014KT P6SM VCSH SCT020 BKN250
     FM071300 16015KT P6SM SCT025 SCT250=



000
FTUS44 KHGX 070555 CCA
TAFGLS
TAF COR
KGLS 070555Z 0706/0806 17014KT P6SM VCSH SCT020 BKN250
     FM071300 16015KT P6SM SCT025 SCT250=



000
FTUS44 KHGX 070554 CCA
TAFLBX
TAF COR
KLBX 070554Z 0706/0806 16006KT P6SM VCSH SCT020 BKN035
      TEMPO 0708/0712 BKN020
     FM071500 17015G23KT P6SM SCT035 SCT250
     FM080200 17007KT P6SM SCT025 SCT250=



000
FTUS44 KHGX 070554 CCA
TAFLBX
TAF COR
KLBX 070554Z 0706/0806 16006KT P6SM VCSH SCT020 BKN035
      TEMPO 0708/0712 BKN020
     FM071500 17015G23KT P6SM SCT035 SCT250
     FM080200 17007KT P6SM SCT025 SCT250=



000
FTUS44 KHGX 070554 CCA
TAFLBX
TAF COR
KLBX 070554Z 0706/0806 16006KT P6SM VCSH SCT020 BKN035
      TEMPO 0708/0712 BKN020
     FM071500 17015G23KT P6SM SCT035 SCT250
     FM080200 17007KT P6SM SCT025 SCT250=



000
FTUS44 KHGX 070520
TAFUTS
TAF
KUTS 070520Z 0706/0806 17007KT P6SM SCT020 BKN250
     FM070900 16005KT P6SM BKN015
     FM071400 17011KT P6SM BKN025
     FM071600 17012G20KT P6SM SCT035 SCT250
     FM080100 17008KT P6SM SCT250=



000
FTUS44 KHGX 070520
TAFSGR
TAF
KSGR 070520Z 0706/0806 17006KT P6SM BKN025
     FM071500 17014G20KT P6SM SCT035 SCT250
     FM080200 17007KT P6SM SCT025 SCT250=



000
FTUS44 KHGX 070520
TAFGLS
TAF
KGLS 070520Z 0706/0806 17014KT P6SM SCT020 BKN250=



000
FTUS44 KHGX 070520
TAFHOU
TAF
KHOU 070520Z 0706/0806 17006KT P6SM SCT020 BKN250
     FM071500 16012G20KT P6SM SCT035 SCT250
     FM080200 16007KT P6SM FEW025 SCT250=



000
FTUS44 KHGX 070520
TAFIAH
TAF
KIAH 070520Z 0706/0812 17006KT P6SM SCT020 BKN250
     FM071500 17012G20KT P6SM SCT035 SCT250
     FM080200 16008KT P6SM SCT250=



000
FTUS44 KHGX 070520
TAFHOU
TAF
KHOU 070520Z 0706/0806 17006KT P6SM SCT020 BKN250
     FM071500 16012G20KT P6SM SCT035 SCT250
     FM080200 16007KT P6SM FEW025 SCT250=



000
FTUS44 KHGX 070520
TAFLBX
TAF
KLBX 070520Z 0706/0806 16006KT P6SM SCT020 BKN250
      TEMPO 0708/0712 BKN020
     FM071500 17015G23KT P6SM SCT035 SCT250
     FM080200 17007KT P6SM SCT025 SCT250=



000
FTUS44 KHGX 070520
TAFLBX
TAF
KLBX 070520Z 0706/0806 16006KT P6SM SCT020 BKN250
      TEMPO 0708/0712 BKN020
     FM071500 17015G23KT P6SM SCT035 SCT250
     FM080200 17007KT P6SM SCT025 SCT250=



000
FTUS44 KHGX 070520
TAFGLS
TAF
KGLS 070520Z 0706/0806 17014KT P6SM SCT020 BKN250=



000
FTUS44 KHGX 070520
TAFHOU
TAF
KHOU 070520Z 0706/0806 17006KT P6SM SCT020 BKN250
     FM071500 16012G20KT P6SM SCT035 SCT250
     FM080200 16007KT P6SM FEW025 SCT250=



000
FTUS44 KHGX 070520
TAFLBX
TAF
KLBX 070520Z 0706/0806 16006KT P6SM SCT020 BKN250
      TEMPO 0708/0712 BKN020
     FM071500 17015G23KT P6SM SCT035 SCT250
     FM080200 17007KT P6SM SCT025 SCT250=



000
FTUS44 KHGX 070520
TAFUTS
TAF
KUTS 070520Z 0706/0806 17007KT P6SM SCT020 BKN250
     FM070900 16005KT P6SM BKN015
     FM071400 17011KT P6SM BKN025
     FM071600 17012G20KT P6SM SCT035 SCT250
     FM080100 17008KT P6SM SCT250=



000
FTUS44 KHGX 070520
TAFCLL
TAF
KCLL 070520Z 0706/0806 17007KT P6SM SCT025 BKN250
     FM070800 17006KT P6SM SCT008 BKN015
     FM071400 17013KT P6SM BKN025
     FM071600 17015G23KT P6SM SCT035 SCT250
     FM080200 17010KT P6SM SCT250=



000
FTUS44 KHGX 070520
TAFCLL
TAF
KCLL 070520Z 0706/0806 17007KT P6SM SCT025 BKN250
     FM070800 17006KT P6SM SCT008 BKN015
     FM071400 17013KT P6SM BKN025
     FM071600 17015G23KT P6SM SCT035 SCT250
     FM080200 17010KT P6SM SCT250=



000
FTUS44 KHGX 070520
TAFCXO
TAF
KCXO 070520Z 0706/0806 16005KT P6SM SCT020 BKN250
     FM070900 16004KT P6SM SCT015 BKN025
      TEMPO 0709/0713 5SM BR BKN015
     FM071500 17013G20KT P6SM SCT035 SCT250
     FM080100 17007KT P6SM SCT250=



000
FTUS44 KHGX 070520
TAFCXO
TAF
KCXO 070520Z 0706/0806 16005KT P6SM SCT020 BKN250
     FM070900 16004KT P6SM SCT015 BKN025
      TEMPO 0709/0713 5SM BR BKN015
     FM071500 17013G20KT P6SM SCT035 SCT250
     FM080100 17007KT P6SM SCT250=



000
FTUS44 KHGX 070520
TAFCXO
TAF
KCXO 070520Z 0706/0806 16005KT P6SM SCT020 BKN250
     FM070900 16004KT P6SM SCT015 BKN025
      TEMPO 0709/0713 5SM BR BKN015
     FM071500 17013G20KT P6SM SCT035 SCT250
     FM080100 17007KT P6SM SCT250=



000
FTUS44 KHGX 070520
TAFIAH
TAF
KIAH 070520Z 0706/0812 17006KT P6SM SCT020 BKN250
     FM071500 17012G20KT P6SM SCT035 SCT250
     FM080200 16008KT P6SM SCT250=



000
FTUS44 KHGX 070520
TAFSGR
TAF
KSGR 070520Z 0706/0806 17006KT P6SM BKN025
     FM071500 17014G20KT P6SM SCT035 SCT250
     FM080200 17007KT P6SM SCT025 SCT250=



000
FTUS44 KHGX 070520
TAFCLL
TAF
KCLL 070520Z 0706/0806 17007KT P6SM SCT025 BKN250
     FM070800 17006KT P6SM SCT008 BKN015
     FM071400 17013KT P6SM BKN025
     FM071600 17015G23KT P6SM SCT035 SCT250
     FM080200 17010KT P6SM SCT250=



000
FTUS44 KHGX 070520
TAFUTS
TAF
KUTS 070520Z 0706/0806 17007KT P6SM SCT020 BKN250
     FM070900 16005KT P6SM BKN015
     FM071400 17011KT P6SM BKN025
     FM071600 17012G20KT P6SM SCT035 SCT250
     FM080100 17008KT P6SM SCT250=



000
FTUS44 KHGX 070520
TAFGLS
TAF
KGLS 070520Z 0706/0806 17014KT P6SM SCT020 BKN250=



000
FTUS44 KHGX 070520
TAFGLS
TAF
KGLS 070520Z 0706/0806 17014KT P6SM SCT020 BKN250=



000
FTUS44 KHGX 070520
TAFHOU
TAF
KHOU 070520Z 0706/0806 17006KT P6SM SCT020 BKN250
     FM071500 16012G20KT P6SM SCT035 SCT250
     FM080200 16007KT P6SM FEW025 SCT250=



000
FTUS44 KHGX 070520
TAFCXO
TAF
KCXO 070520Z 0706/0806 16005KT P6SM SCT020 BKN250
     FM070900 16004KT P6SM SCT015 BKN025
      TEMPO 0709/0713 5SM BR BKN015
     FM071500 17013G20KT P6SM SCT035 SCT250
     FM080100 17007KT P6SM SCT250=



000
FTUS44 KHGX 070520
TAFIAH
TAF
KIAH 070520Z 0706/0812 17006KT P6SM SCT020 BKN250
     FM071500 17012G20KT P6SM SCT035 SCT250
     FM080200 16008KT P6SM SCT250=



000
FTUS44 KHGX 070520
TAFSGR
TAF
KSGR 070520Z 0706/0806 17006KT P6SM BKN025
     FM071500 17014G20KT P6SM SCT035 SCT250
     FM080200 17007KT P6SM SCT025 SCT250=



000
FTUS44 KHGX 070520
TAFLBX
TAF
KLBX 070520Z 0706/0806 16006KT P6SM SCT020 BKN250
      TEMPO 0708/0712 BKN020
     FM071500 17015G23KT P6SM SCT035 SCT250
     FM080200 17007KT P6SM SCT025 SCT250=



000
FTUS44 KHGX 070520
TAFCLL
TAF
KCLL 070520Z 0706/0806 17007KT P6SM SCT025 BKN250
     FM070800 17006KT P6SM SCT008 BKN015
     FM071400 17013KT P6SM BKN025
     FM071600 17015G23KT P6SM SCT035 SCT250
     FM080200 17010KT P6SM SCT250=



000
FTUS44 KHGX 070520
TAFIAH
TAF
KIAH 070520Z 0706/0812 17006KT P6SM SCT020 BKN250
     FM071500 17012G20KT P6SM SCT035 SCT250
     FM080200 16008KT P6SM SCT250=



000
FTUS44 KHGX 070520
TAFUTS
TAF
KUTS 070520Z 0706/0806 17007KT P6SM SCT020 BKN250
     FM070900 16005KT P6SM BKN015
     FM071400 17011KT P6SM BKN025
     FM071600 17012G20KT P6SM SCT035 SCT250
     FM080100 17008KT P6SM SCT250=



000
FTUS44 KHGX 070319 AAA
TAFSGR
TAF AMD
KSGR 070319Z 0703/0724 16006KT P6SM BKN025
     FM071500 17014G20KT P6SM SCT035 SCT250=



000
FTUS44 KHGX 070319 AAA
TAFSGR
TAF AMD
KSGR 070319Z 0703/0724 16006KT P6SM BKN025
     FM071500 17014G20KT P6SM SCT035 SCT250=



000
FTUS44 KHGX 070258 AAA
TAFHOU
TAF AMD
KHOU 070258Z 0703/0724 16005KT P6SM SCT020 SCT250
     FM071500 16012G20KT P6SM SCT035 SCT250=



000
FTUS44 KHGX 070258 AAA
TAFHOU
TAF AMD
KHOU 070258Z 0703/0724 16005KT P6SM SCT020 SCT250
     FM071500 16012G20KT P6SM SCT035 SCT250=



000
FTUS44 KHGX 070258 AAA
TAFIAH
TAF AMD
KIAH 070258Z 0703/0806 16008KT P6SM SCT020 SCT250
     FM071500 17012G20KT P6SM SCT035 SCT250
     FM080200 16008KT P6SM FEW050 SCT250=



000
FTUS44 KHGX 070258 AAA
TAFIAH
TAF AMD
KIAH 070258Z 0703/0806 16008KT P6SM SCT020 SCT250
     FM071500 17012G20KT P6SM SCT035 SCT250
     FM080200 16008KT P6SM FEW050 SCT250=



000
FTUS44 KHGX 062332
TAFGLS
TAF
KGLS 062332Z 0700/0724 17014KT P6SM SCT025 SCT250=



000
FTUS44 KHGX 062332
TAFCXO
TAF
KCXO 062332Z 0700/0724 16013KT P6SM FEW050 SCT250
     FM070200 16007KT P6SM SCT020 SCT250
     FM070900 16004KT P6SM SCT015 BKN025
      TEMPO 0709/0713 5SM BR
     FM071500 17013G20KT P6SM SCT035 SCT250=



000
FTUS44 KHGX 062332
TAFUTS
TAF
KUTS 062332Z 0700/0724 17009KT P6SM FEW050 SCT250
     FM070800 16005KT P6SM BKN015
     FM071400 17011KT P6SM BKN025
     FM071600 17012G20KT P6SM SCT035 SCT250=



000
FTUS44 KHGX 062332
TAFLBX
TAF
KLBX 062332Z 0700/0724 17013KT P6SM SCT040 SCT250
     FM070200 16008KT P6SM SCT020 SCT250
      TEMPO 0708/0712 BKN020
     FM071500 17015G23KT P6SM SCT030 SCT250=



000
FTUS44 KHGX 062332
TAFCLL
TAF
KCLL 062332Z 0700/0724 17015KT P6SM FEW050 SCT250
     FM070600 17009KT P6SM SCT008 BKN015
     FM071400 17013KT P6SM BKN025
     FM071600 17015G23KT P6SM SCT035 SCT250=



000
FTUS44 KHGX 062332
TAFUTS
TAF
KUTS 062332Z 0700/0724 17009KT P6SM FEW050 SCT250
     FM070800 16005KT P6SM BKN015
     FM071400 17011KT P6SM BKN025
     FM071600 17012G20KT P6SM SCT035 SCT250=



000
FTUS44 KHGX 062332
TAFHOU
TAF
KHOU 062332Z 0700/0724 16011KT P6SM SCT040 SCT250
     FM070200 16006KT P6SM SCT025 SCT250
     FM071500 16012G20KT P6SM SCT035 SCT250=



000
FTUS44 KHGX 062332
TAFSGR
TAF
KSGR 062332Z 0700/0724 16015KT P6SM SCT040 BKN250
     FM070200 16007KT P6SM SCT025 SCT250
     FM070600 16005KT P6SM BKN025
     FM071500 17014G20KT P6SM SCT035 SCT250=



000
FTUS44 KHGX 062332
TAFIAH
TAF
KIAH 062332Z 0700/0806 17012KT P6SM FEW045 BKN250
     FM070200 16008KT P6SM SCT020 BKN250
     FM071500 17012G20KT P6SM SCT035 SCT250
     FM080200 16008KT P6SM FEW050 SCT250=



000
FTUS44 KHGX 062332
TAFCLL
TAF
KCLL 062332Z 0700/0724 17015KT P6SM FEW050 SCT250
     FM070600 17009KT P6SM SCT008 BKN015
     FM071400 17013KT P6SM BKN025
     FM071600 17015G23KT P6SM SCT035 SCT250=



000
FTUS44 KHGX 062332
TAFLBX
TAF
KLBX 062332Z 0700/0724 17013KT P6SM SCT040 SCT250
     FM070200 16008KT P6SM SCT020 SCT250
      TEMPO 0708/0712 BKN020
     FM071500 17015G23KT P6SM SCT030 SCT250=



000
FTUS44 KHGX 062332
TAFCXO
TAF
KCXO 062332Z 0700/0724 16013KT P6SM FEW050 SCT250
     FM070200 16007KT P6SM SCT020 SCT250
     FM070900 16004KT P6SM SCT015 BKN025
      TEMPO 0709/0713 5SM BR
     FM071500 17013G20KT P6SM SCT035 SCT250=



000
FTUS44 KHGX 062332
TAFGLS
TAF
KGLS 062332Z 0700/0724 17014KT P6SM SCT025 SCT250=



000
FTUS44 KHGX 062332
TAFIAH
TAF
KIAH 062332Z 0700/0806 17012KT P6SM FEW045 BKN250
     FM070200 16008KT P6SM SCT020 BKN250
     FM071500 17012G20KT P6SM SCT035 SCT250
     FM080200 16008KT P6SM FEW050 SCT250=



000
FTUS44 KHGX 062332
TAFHOU
TAF
KHOU 062332Z 0700/0724 16011KT P6SM SCT040 SCT250
     FM070200 16006KT P6SM SCT025 SCT250
     FM071500 16012G20KT P6SM SCT035 SCT250=



000
FTUS44 KHGX 062332
TAFSGR
TAF
KSGR 062332Z 0700/0724 16015KT P6SM SCT040 BKN250
     FM070200 16007KT P6SM SCT025 SCT250
     FM070600 16005KT P6SM BKN025
     FM071500 17014G20KT P6SM SCT035 SCT250=



000
FTUS44 KHGX 062332
TAFIAH
TAF
KIAH 062332Z 0700/0806 17012KT P6SM FEW045 BKN250
     FM070200 16008KT P6SM SCT020 BKN250
     FM071500 17012G20KT P6SM SCT035 SCT250
     FM080200 16008KT P6SM FEW050 SCT250=



000
FTUS44 KHGX 062332
TAFSGR
TAF
KSGR 062332Z 0700/0724 16015KT P6SM SCT040 BKN250
     FM070200 16007KT P6SM SCT025 SCT250
     FM070600 16005KT P6SM BKN025
     FM071500 17014G20KT P6SM SCT035 SCT250=



000
FTUS44 KHGX 062332
TAFLBX
TAF
KLBX 062332Z 0700/0724 17013KT P6SM SCT040 SCT250
     FM070200 16008KT P6SM SCT020 SCT250
      TEMPO 0708/0712 BKN020
     FM071500 17015G23KT P6SM SCT030 SCT250=



000
FTUS44 KHGX 062332
TAFGLS
TAF
KGLS 062332Z 0700/0724 17014KT P6SM SCT025 SCT250=



000
FTUS44 KHGX 062332
TAFUTS
TAF
KUTS 062332Z 0700/0724 17009KT P6SM FEW050 SCT250
     FM070800 16005KT P6SM BKN015
     FM071400 17011KT P6SM BKN025
     FM071600 17012G20KT P6SM SCT035 SCT250=



000
FTUS44 KHGX 062332
TAFCXO
TAF
KCXO 062332Z 0700/0724 16013KT P6SM FEW050 SCT250
     FM070200 16007KT P6SM SCT020 SCT250
     FM070900 16004KT P6SM SCT015 BKN025
      TEMPO 0709/0713 5SM BR
     FM071500 17013G20KT P6SM SCT035 SCT250=



000
FTUS44 KHGX 062332
TAFCLL
TAF
KCLL 062332Z 0700/0724 17015KT P6SM FEW050 SCT250
     FM070600 17009KT P6SM SCT008 BKN015
     FM071400 17013KT P6SM BKN025
     FM071600 17015G23KT P6SM SCT035 SCT250=



000
FTUS44 KHGX 062332
TAFHOU
TAF
KHOU 062332Z 0700/0724 16011KT P6SM SCT040 SCT250
     FM070200 16006KT P6SM SCT025 SCT250
     FM071500 16012G20KT P6SM SCT035 SCT250=



000
FTUS44 KHGX 062109 AAA
TAFLBX
TAF AMD
KLBX 062109Z 0621/0718 17016KT P6SM BKN035
     FM070100 16008KT P6SM SCT015 SCT250
      TEMPO 0708/0712 BKN015
     FM071500 17015G22KT P6SM SCT025 SCT250=



000
FTUS44 KHGX 062109 AAA
TAFLBX
TAF AMD
KLBX 062109Z 0621/0718 17016KT P6SM BKN035
     FM070100 16008KT P6SM SCT015 SCT250
      TEMPO 0708/0712 BKN015
     FM071500 17015G22KT P6SM SCT025 SCT250=



000
FTUS44 KHGX 062107 AAA
TAFHOU
TAF AMD
KHOU 062107Z 0621/0718 17011G20KT P6SM SCT040 BKN250
     FM070100 16009KT P6SM SCT025 BKN250
     FM071000 16005KT P6SM SCT015 SCT250
     FM071600 16012G19KT P6SM SCT035 SCT250=



000
FTUS44 KHGX 062107 AAA
TAFHOU
TAF AMD
KHOU 062107Z 0621/0718 17011G20KT P6SM SCT040 BKN250
     FM070100 16009KT P6SM SCT025 BKN250
     FM071000 16005KT P6SM SCT015 SCT250
     FM071600 16012G19KT P6SM SCT035 SCT250=



000
FTUS44 KHGX 062105 AAA
TAFIAH
TAF AMD
KIAH 062105Z 0621/0724 17012G20KT P6SM FEW045 BKN250
     FM070100 16010KT P6SM SCT025 BKN250
     FM071000 16005KT P6SM SCT015 SCT250
     FM071600 16012G19KT P6SM SCT035 SCT250=



000
FTUS44 KHGX 062105 AAA
TAFIAH
TAF AMD
KIAH 062105Z 0621/0724 17012G20KT P6SM FEW045 BKN250
     FM070100 16010KT P6SM SCT025 BKN250
     FM071000 16005KT P6SM SCT015 SCT250
     FM071600 16012G19KT P6SM SCT035 SCT250=



000
FTUS44 KHGX 062105 AAA
TAFIAH
TAF AMD
KIAH 062105Z 0621/0724 17012G20KT P6SM FEW045 BKN250
     FM070100 16010KT P6SM SCT025 BKN250
     FM071000 16005KT P6SM SCT015 SCT250
     FM071600 16012G19KT P6SM SCT035 SCT250=



000
FTUS44 KHGX 062105 AAA
TAFIAH
TAF AMD
KIAH 062105Z 0621/0724 17012G20KT P6SM FEW045 BKN250
     FM070100 16010KT P6SM SCT025 BKN250
     FM071000 16005KT P6SM SCT015 SCT250
     FM071600 16012G19KT P6SM SCT035 SCT250=



000
FTUS44 KHGX 061730
TAFLBX
TAF
KLBX 061730Z 0618/0718 17017KT P6SM FEW030 SCT250
     FM070200 16008KT P6SM SCT015 SCT250
      TEMPO 0708/0712 BKN015
     FM071500 17015G22KT P6SM SCT025 SCT250=



000
FTUS44 KHGX 061730
TAFUTS
TAF
KUTS 061730Z 0618/0718 17011G19KT P6SM SCT035 SCT250
     FM070000 17009KT P6SM FEW250
     FM071000 16006KT P6SM BKN015
     FM071400 17010KT P6SM SCT015 BKN030
     FM071700 17012G18KT P6SM SCT030 SCT250=



000
FTUS44 KHGX 061730
TAFSGR
TAF
KSGR 061730Z 0618/0718 17015G20KT P6SM SCT040 SCT250
     FM070100 16008KT P6SM SCT025 SCT250
     FM070700 16006KT P6SM BKN025
     FM071600 16012G19KT P6SM SCT035 SCT250=



000
FTUS44 KHGX 061730
TAFGLS
TAF
KGLS 061730Z 0618/0718 17015KT P6SM SCT025 SCT250=



000
FTUS44 KHGX 061730
TAFLBX
TAF
KLBX 061730Z 0618/0718 17017KT P6SM FEW030 SCT250
     FM070200 16008KT P6SM SCT015 SCT250
      TEMPO 0708/0712 BKN015
     FM071500 17015G22KT P6SM SCT025 SCT250=



000
FTUS44 KHGX 061730
TAFCXO
TAF
KCXO 061730Z 0618/0718 19013G20KT P6SM SCT035 SCT045
     FM070200 16007KT P6SM FEW025 SCT250
     FM070900 16005KT P6SM SCT015 BKN022
      TEMPO 0709/0712 5SM BR
     FM071500 17012KT P6SM SCT025 BKN040=



000
FTUS44 KHGX 061730
TAFIAH
TAF
KIAH 061730Z 0618/0724 17012G20KT P6SM SCT035 BKN250
     FM070100 16011KT P6SM SCT025 SCT250
     FM071000 16005KT P6SM SCT015 SCT250
     FM071600 16012G19KT P6SM SCT035 SCT250=



000
FTUS44 KHGX 061730
TAFCLL
TAF
KCLL 061730Z 0618/0718 17013G20KT P6SM FEW030 SCT250
     FM070100 17009KT P6SM FEW030
     FM070800 17008KT P6SM SCT008 OVC014
     FM071400 17011KT P6SM SCT015 BKN030
     FM071600 17012G20KT P6SM SCT030 SCT250=



000
FTUS44 KHGX 061730
TAFGLS
TAF
KGLS 061730Z 0618/0718 17015KT P6SM SCT025 SCT250=



000
FTUS44 KHGX 061730
TAFUTS
TAF
KUTS 061730Z 0618/0718 17011G19KT P6SM SCT035 SCT250
     FM070000 17009KT P6SM FEW250
     FM071000 16006KT P6SM BKN015
     FM071400 17010KT P6SM SCT015 BKN030
     FM071700 17012G18KT P6SM SCT030 SCT250=



000
FTUS44 KHGX 061730
TAFSGR
TAF
KSGR 061730Z 0618/0718 17015G20KT P6SM SCT040 SCT250
     FM070100 16008KT P6SM SCT025 SCT250
     FM070700 16006KT P6SM BKN025
     FM071600 16012G19KT P6SM SCT035 SCT250=



000
FTUS44 KHGX 061730
TAFCXO
TAF
KCXO 061730Z 0618/0718 19013G20KT P6SM SCT035 SCT045
     FM070200 16007KT P6SM FEW025 SCT250
     FM070900 16005KT P6SM SCT015 BKN022
      TEMPO 0709/0712 5SM BR
     FM071500 17012KT P6SM SCT025 BKN040=



000
FTUS44 KHGX 061730
TAFIAH
TAF
KIAH 061730Z 0618/0724 17012G20KT P6SM SCT035 BKN250
     FM070100 16011KT P6SM SCT025 SCT250
     FM071000 16005KT P6SM SCT015 SCT250
     FM071600 16012G19KT P6SM SCT035 SCT250=



000
FTUS44 KHGX 061730
TAFCLL
TAF
KCLL 061730Z 0618/0718 17013G20KT P6SM FEW030 SCT250
     FM070100 17009KT P6SM FEW030
     FM070800 17008KT P6SM SCT008 OVC014
     FM071400 17011KT P6SM SCT015 BKN030
     FM071600 17012G20KT P6SM SCT030 SCT250=



000
FTUS44 KHGX 061730
TAFHOU
TAF
KHOU 061730Z 0618/0718 18011G20KT P6SM FEW030 SCT250
     FM070100 16011KT P6SM SCT025 SCT250
     FM071000 16005KT P6SM SCT015 SCT250
     FM071600 16012G19KT P6SM SCT035 SCT250=



000
FTUS44 KHGX 061730
TAFHOU
TAF
KHOU 061730Z 0618/0718 18011G20KT P6SM FEW030 SCT250
     FM070100 16011KT P6SM SCT025 SCT250
     FM071000 16005KT P6SM SCT015 SCT250
     FM071600 16012G19KT P6SM SCT035 SCT250=



000
FTUS44 KHGX 061730
TAFCLL
TAF
KCLL 061730Z 0618/0718 17013G20KT P6SM FEW030 SCT250
     FM070100 17009KT P6SM FEW030
     FM070800 17008KT P6SM SCT008 OVC014
     FM071400 17011KT P6SM SCT015 BKN030
     FM071600 17012G20KT P6SM SCT030 SCT250=



000
FTUS44 KHGX 061730
TAFLBX
TAF
KLBX 061730Z 0618/0718 17017KT P6SM FEW030 SCT250
     FM070200 16008KT P6SM SCT015 SCT250
      TEMPO 0708/0712 BKN015
     FM071500 17015G22KT P6SM SCT025 SCT250=



000
FTUS44 KHGX 061730
TAFGLS
TAF
KGLS 061730Z 0618/0718 17015KT P6SM SCT025 SCT250=



000
FTUS44 KHGX 061730
TAFSGR
TAF
KSGR 061730Z 0618/0718 17015G20KT P6SM SCT040 SCT250
     FM070100 16008KT P6SM SCT025 SCT250
     FM070700 16006KT P6SM BKN025
     FM071600 16012G19KT P6SM SCT035 SCT250=



000
FTUS44 KHGX 061730
TAFCXO
TAF
KCXO 061730Z 0618/0718 19013G20KT P6SM SCT035 SCT045
     FM070200 16007KT P6SM FEW025 SCT250
     FM070900 16005KT P6SM SCT015 BKN022
      TEMPO 0709/0712 5SM BR
     FM071500 17012KT P6SM SCT025 BKN040=



000
FTUS44 KHGX 061730
TAFUTS
TAF
KUTS 061730Z 0618/0718 17011G19KT P6SM SCT035 SCT250
     FM070000 17009KT P6SM FEW250
     FM071000 16006KT P6SM BKN015
     FM071400 17010KT P6SM SCT015 BKN030
     FM071700 17012G18KT P6SM SCT030 SCT250=



000
FTUS44 KHGX 061730
TAFIAH
TAF
KIAH 061730Z 0618/0724 17012G20KT P6SM SCT035 BKN250
     FM070100 16011KT P6SM SCT025 SCT250
     FM071000 16005KT P6SM SCT015 SCT250
     FM071600 16012G19KT P6SM SCT035 SCT250=



000
FTUS44 KHGX 061453 AAA
TAFHOU
TAF AMD
KHOU 061453Z 0615/0712 18008KT P6SM SCT020 SCT250
     FM061700 16012G18KT P6SM SCT035 SCT250
     FM070100 16007KT P6SM FEW020 SCT250=



000
FTUS44 KHGX 061453 AAA
TAFHOU
TAF AMD
KHOU 061453Z 0615/0712 18008KT P6SM SCT020 SCT250
     FM061700 16012G18KT P6SM SCT035 SCT250
     FM070100 16007KT P6SM FEW020 SCT250=



000
FTUS44 KHGX 061453 AAA
TAFIAH
TAF AMD
KIAH 061453Z 0615/0718 18009KT P6SM FEW025 BKN250
     FM061700 16013G19KT P6SM SCT040 SCT250
     FM070100 16008KT P6SM SCT015 SCT250
     FM071500 16010G16KT P6SM SCT030=



000
FTUS44 KHGX 061453 AAA
TAFIAH
TAF AMD
KIAH 061453Z 0615/0718 18009KT P6SM FEW025 BKN250
     FM061700 16013G19KT P6SM SCT040 SCT250
     FM070100 16008KT P6SM SCT015 SCT250
     FM071500 16010G16KT P6SM SCT030=



000
FTUS44 KHGX 061453 AAA
TAFIAH
TAF AMD
KIAH 061453Z 0615/0718 18009KT P6SM FEW025 BKN250
     FM061700 16013G19KT P6SM SCT040 SCT250
     FM070100 16008KT P6SM SCT015 SCT250
     FM071500 16010G16KT P6SM SCT030=



000
FTUS44 KHGX 061424 AAA
TAFCXO
TAF AMD
KCXO 061424Z 0614/0712 16010KT P6SM BKN014 BKN018 OVC024
     FM061530 18012KT P6SM SCT030 SCT250
     FM070400 16007KT P6SM FEW025 SCT250
     FM070900 16005KT P6SM BKN027=



000
FTUS44 KHGX 061424 AAA
TAFCXO
TAF AMD
KCXO 061424Z 0614/0712 16010KT P6SM BKN014 BKN018 OVC024
     FM061530 18012KT P6SM SCT030 SCT250
     FM070400 16007KT P6SM FEW025 SCT250
     FM070900 16005KT P6SM BKN027=



000
FTUS44 KHGX 061423 AAA
TAFUTS
TAF AMD
KUTS 061423Z 0614/0712 17009G16KT P6SM BKN013 BKN020 OVC045
     FM061530 17014KT P6SM SCT030 SCT250
     FM061900 17016G22KT P6SM SCT045 SCT250
     FM070200 17009KT P6SM FEW250
     FM071000 17008KT P6SM BKN018=



000
FTUS44 KHGX 061408 AAB
TAFCLL
TAF AMD
KCLL 061408Z 0614/0712 17009KT P6SM BKN015 BKN022 OVC028
     FM061600 17013KT P6SM SCT025 BKN040
     FM061900 17016G22KT P6SM SCT045 SCT250
     FM070200 17009KT P6SM FEW030
     FM070800 17008KT P6SM BKN014=



000
FTUS44 KHGX 061408 AAB
TAFCLL
TAF AMD
KCLL 061408Z 0614/0712 17009KT P6SM BKN015 BKN022 OVC028
     FM061600 17013KT P6SM SCT025 BKN040
     FM061900 17016G22KT P6SM SCT045 SCT250
     FM070200 17009KT P6SM FEW030
     FM070800 17008KT P6SM BKN014=



000
FTUS44 KHGX 061329 AAA
TAFCLL
TAF AMD
KCLL 061329Z 0613/0712 16009KT P6SM SCT012 BKN017 OVC024
      TEMPO 0613/0614 SCT020
     FM061400 17014KT P6SM SCT030 SCT250
     FM061900 17016G22KT P6SM SCT045 SCT250
     FM070200 17009KT P6SM FEW030
     FM070800 17008KT P6SM BKN014=



000
FTUS44 KHGX 061329 AAA
TAFCLL
TAF AMD
KCLL 061329Z 0613/0712 16009KT P6SM SCT012 BKN017 OVC024
      TEMPO 0613/0614 SCT020
     FM061400 17014KT P6SM SCT030 SCT250
     FM061900 17016G22KT P6SM SCT045 SCT250
     FM070200 17009KT P6SM FEW030
     FM070800 17008KT P6SM BKN014=



000
FTUS44 KHGX 061329 AAA
TAFCLL
TAF AMD
KCLL 061329Z 0613/0712 16009KT P6SM SCT012 BKN017 OVC024
      TEMPO 0613/0614 SCT020
     FM061400 17014KT P6SM SCT030 SCT250
     FM061900 17016G22KT P6SM SCT045 SCT250
     FM070200 17009KT P6SM FEW030
     FM070800 17008KT P6SM BKN014=



000
FTUS44 KHGX 061329 AAA
TAFCLL
TAF AMD
KCLL 061329Z 0613/0712 16009KT P6SM SCT012 BKN017 OVC024
      TEMPO 0613/0614 SCT020
     FM061400 17014KT P6SM SCT030 SCT250
     FM061900 17016G22KT P6SM SCT045 SCT250
     FM070200 17009KT P6SM FEW030
     FM070800 17008KT P6SM BKN014=



000
FTUS44 KHGX 061156
TAFCXO
TAF
KCXO 061156Z 0612/0712 14004KT 6SM BR SCT014 OVC027
     FM061330 16006KT P6SM BKN030
     FM061500 18012KT P6SM SCT030 SCT250
     FM070400 16007KT P6SM FEW025 SCT250
     FM070900 16005KT P6SM BKN027=



000
FTUS44 KHGX 061156
TAFCXO
TAF
KCXO 061156Z 0612/0712 14004KT 6SM BR SCT014 OVC027
     FM061330 16006KT P6SM BKN030
     FM061500 18012KT P6SM SCT030 SCT250
     FM070400 16007KT P6SM FEW025 SCT250
     FM070900 16005KT P6SM BKN027=



000
FTUS44 KHGX 061156
TAFCXO
TAF
KCXO 061156Z 0612/0712 14004KT 6SM BR SCT014 OVC027
     FM061330 16006KT P6SM BKN030
     FM061500 18012KT P6SM SCT030 SCT250
     FM070400 16007KT P6SM FEW025 SCT250
     FM070900 16005KT P6SM BKN027=



000
FTUS44 KHGX 061156
TAFCXO
TAF
KCXO 061156Z 0612/0712 14004KT 6SM BR SCT014 OVC027
     FM061330 16006KT P6SM BKN030
     FM061500 18012KT P6SM SCT030 SCT250
     FM070400 16007KT P6SM FEW025 SCT250
     FM070900 16005KT P6SM BKN027=



000
FTUS44 KHGX 061132
TAFCLL
TAF
KCLL 061132Z 0612/0712 18007KT P6SM SCT014 OVC028
      TEMPO 0612/0614 SCT020
     FM061400 17014KT P6SM SCT030 SCT250
     FM061900 17016G22KT P6SM SCT045 SCT250
     FM070200 17009KT P6SM FEW030
     FM070800 17008KT P6SM BKN014=



000
FTUS44 KHGX 061132
TAFSGR
TAF
KSGR 061132Z 0612/0712 16008KT P6SM FEW020 BKN030
     FM061300 17011KT P6SM SCT035
     FM061700 16012G18KT P6SM SCT040 SCT250
     FM070100 16008KT P6SM SCT015 SCT250
     FM070700 16006KT P6SM BKN028
     FM071100 17009KT P6SM SCT025=



000
FTUS44 KHGX 061132
TAFGLS
TAF
KGLS 061132Z 0612/0712 17013KT P6SM FEW025 SCT250
     FM071100 17014KT P6SM VCSH SCT025 SCT250=



000
FTUS44 KHGX 061132
TAFHOU
TAF
KHOU 061132Z 0612/0712 16004KT P6SM FEW020 SCT250
     FM061500 17013KT P6SM SCT030 SCT250
     FM061700 16012G18KT P6SM SCT030 SCT250
     FM070100 16007KT P6SM FEW020 SCT250=



000
FTUS44 KHGX 061132
TAFCXO
TAF
KCXO 061132Z 0612/0712 14003KT 6SM BR BKN014 OVC026
      TEMPO 0612/0614 5SM BR BKN016
     FM061500 18012KT P6SM SCT030 SCT250
     FM070400 16007KT P6SM FEW025 SCT250=



000
FTUS44 KHGX 061132
TAFGLS
TAF
KGLS 061132Z 0612/0712 17013KT P6SM FEW025 SCT250
     FM071100 17014KT P6SM VCSH SCT025 SCT250=



000
FTUS44 KHGX 061132
TAFIAH
TAF
KIAH 061132Z 0612/0718 17006KT P6SM FEW025 BKN250
     FM061500 17013KT P6SM SCT035 SCT250
     FM061700 16013G19KT P6SM SCT040 SCT250
     FM070100 16008KT P6SM SCT015 SCT250
     FM071500 16010G16KT P6SM SCT030=



000
FTUS44 KHGX 061132
TAFSGR
TAF
KSGR 061132Z 0612/0712 16008KT P6SM FEW020 BKN030
     FM061300 17011KT P6SM SCT035
     FM061700 16012G18KT P6SM SCT040 SCT250
     FM070100 16008KT P6SM SCT015 SCT250
     FM070700 16006KT P6SM BKN028
     FM071100 17009KT P6SM SCT025=



000
FTUS44 KHGX 061132
TAFCXO
TAF
KCXO 061132Z 0612/0712 14003KT 6SM BR BKN014 OVC026
      TEMPO 0612/0614 5SM BR BKN016
     FM061500 18012KT P6SM SCT030 SCT250
     FM070400 16007KT P6SM FEW025 SCT250=



000
FTUS44 KHGX 061132
TAFLBX
TAF
KLBX 061132Z 0612/0712 17009KT P6SM SCT035
     FM061400 17015KT P6SM SCT035 SCT250
     FM070300 16004KT P6SM SCT020
      TEMPO 0704/0708 BKN024=



000
FTUS44 KHGX 061132
TAFHOU
TAF
KHOU 061132Z 0612/0712 16004KT P6SM FEW020 SCT250
     FM061500 17013KT P6SM SCT030 SCT250
     FM061700 16012G18KT P6SM SCT030 SCT250
     FM070100 16007KT P6SM FEW020 SCT250=



000
FTUS44 KHGX 061132
TAFUTS
TAF
KUTS 061132Z 0612/0712 17005KT P6SM SCT016 BKN022 BKN027
      TEMPO 0612/0613 BKN011
     FM061500 17014KT P6SM SCT030 SCT250
     FM061900 17016G22KT P6SM SCT045 SCT250
     FM070200 17009KT P6SM FEW250
     FM071000 17008KT P6SM BKN018=



000
FTUS44 KHGX 061132
TAFCLL
TAF
KCLL 061132Z 0612/0712 18007KT P6SM SCT014 OVC028
      TEMPO 0612/0614 SCT020
     FM061400 17014KT P6SM SCT030 SCT250
     FM061900 17016G22KT P6SM SCT045 SCT250
     FM070200 17009KT P6SM FEW030
     FM070800 17008KT P6SM BKN014=



000
FTUS44 KHGX 061132
TAFSGR
TAF
KSGR 061132Z 0612/0712 16008KT P6SM FEW020 BKN030
     FM061300 17011KT P6SM SCT035
     FM061700 16012G18KT P6SM SCT040 SCT250
     FM070100 16008KT P6SM SCT015 SCT250
     FM070700 16006KT P6SM BKN028
     FM071100 17009KT P6SM SCT025=



000
FTUS44 KHGX 061132
TAFLBX
TAF
KLBX 061132Z 0612/0712 17009KT P6SM SCT035
     FM061400 17015KT P6SM SCT035 SCT250
     FM070300 16004KT P6SM SCT020
      TEMPO 0704/0708 BKN024=



000
FTUS44 KHGX 061132
TAFHOU
TAF
KHOU 061132Z 0612/0712 16004KT P6SM FEW020 SCT250
     FM061500 17013KT P6SM SCT030 SCT250
     FM061700 16012G18KT P6SM SCT030 SCT250
     FM070100 16007KT P6SM FEW020 SCT250=



000
FTUS44 KHGX 061132
TAFCXO
TAF
KCXO 061132Z 0612/0712 14003KT 6SM BR BKN014 OVC026
      TEMPO 0612/0614 5SM BR BKN016
     FM061500 18012KT P6SM SCT030 SCT250
     FM070400 16007KT P6SM FEW025 SCT250=



000
FTUS44 KHGX 061132
TAFIAH
TAF
KIAH 061132Z 0612/0718 17006KT P6SM FEW025 BKN250
     FM061500 17013KT P6SM SCT035 SCT250
     FM061700 16013G19KT P6SM SCT040 SCT250
     FM070100 16008KT P6SM SCT015 SCT250
     FM071500 16010G16KT P6SM SCT030=



000
FTUS44 KHGX 061132
TAFGLS
TAF
KGLS 061132Z 0612/0712 17013KT P6SM FEW025 SCT250
     FM071100 17014KT P6SM VCSH SCT025 SCT250=



000
FTUS44 KHGX 061132
TAFCLL
TAF
KCLL 061132Z 0612/0712 18007KT P6SM SCT014 OVC028
      TEMPO 0612/0614 SCT020
     FM061400 17014KT P6SM SCT030 SCT250
     FM061900 17016G22KT P6SM SCT045 SCT250
     FM070200 17009KT P6SM FEW030
     FM070800 17008KT P6SM BKN014=



000
FTUS44 KHGX 061132
TAFUTS
TAF
KUTS 061132Z 0612/0712 17005KT P6SM SCT016 BKN022 BKN027
      TEMPO 0612/0613 BKN011
     FM061500 17014KT P6SM SCT030 SCT250
     FM061900 17016G22KT P6SM SCT045 SCT250
     FM070200 17009KT P6SM FEW250
     FM071000 17008KT P6SM BKN018=



000
FTUS44 KHGX 061132
TAFIAH
TAF
KIAH 061132Z 0612/0718 17006KT P6SM FEW025 BKN250
     FM061500 17013KT P6SM SCT035 SCT250
     FM061700 16013G19KT P6SM SCT040 SCT250
     FM070100 16008KT P6SM SCT015 SCT250
     FM071500 16010G16KT P6SM SCT030=



000
FTUS44 KHGX 061132
TAFGLS
TAF
KGLS 061132Z 0612/0712 17013KT P6SM FEW025 SCT250
     FM071100 17014KT P6SM VCSH SCT025 SCT250=



000
FTUS44 KHGX 061132
TAFCLL
TAF
KCLL 061132Z 0612/0712 18007KT P6SM SCT014 OVC028
      TEMPO 0612/0614 SCT020
     FM061400 17014KT P6SM SCT030 SCT250
     FM061900 17016G22KT P6SM SCT045 SCT250
     FM070200 17009KT P6SM FEW030
     FM070800 17008KT P6SM BKN014=



000
FTUS44 KHGX 061132
TAFSGR
TAF
KSGR 061132Z 0612/0712 16008KT P6SM FEW020 BKN030
     FM061300 17011KT P6SM SCT035
     FM061700 16012G18KT P6SM SCT040 SCT250
     FM070100 16008KT P6SM SCT015 SCT250
     FM070700 16006KT P6SM BKN028
     FM071100 17009KT P6SM SCT025=



000
FTUS44 KHGX 061132
TAFLBX
TAF
KLBX 061132Z 0612/0712 17009KT P6SM SCT035
     FM061400 17015KT P6SM SCT035 SCT250
     FM070300 16004KT P6SM SCT020
      TEMPO 0704/0708 BKN024=



000
FTUS44 KHGX 061132
TAFCXO
TAF
KCXO 061132Z 0612/0712 14003KT 6SM BR BKN014 OVC026
      TEMPO 0612/0614 5SM BR BKN016
     FM061500 18012KT P6SM SCT030 SCT250
     FM070400 16007KT P6SM FEW025 SCT250=



000
FTUS44 KHGX 061132
TAFUTS
TAF
KUTS 061132Z 0612/0712 17005KT P6SM SCT016 BKN022 BKN027
      TEMPO 0612/0613 BKN011
     FM061500 17014KT P6SM SCT030 SCT250
     FM061900 17016G22KT P6SM SCT045 SCT250
     FM070200 17009KT P6SM FEW250
     FM071000 17008KT P6SM BKN018=



000
FTUS44 KHGX 061132
TAFHOU
TAF
KHOU 061132Z 0612/0712 16004KT P6SM FEW020 SCT250
     FM061500 17013KT P6SM SCT030 SCT250
     FM061700 16012G18KT P6SM SCT030 SCT250
     FM070100 16007KT P6SM FEW020 SCT250=



000
FTUS44 KHGX 061132
TAFUTS
TAF
KUTS 061132Z 0612/0712 17005KT P6SM SCT016 BKN022 BKN027
      TEMPO 0612/0613 BKN011
     FM061500 17014KT P6SM SCT030 SCT250
     FM061900 17016G22KT P6SM SCT045 SCT250
     FM070200 17009KT P6SM FEW250
     FM071000 17008KT P6SM BKN018=



000
FTUS44 KHGX 061132
TAFLBX
TAF
KLBX 061132Z 0612/0712 17009KT P6SM SCT035
     FM061400 17015KT P6SM SCT035 SCT250
     FM070300 16004KT P6SM SCT020
      TEMPO 0704/0708 BKN024=



000
FTUS44 KHGX 061132
TAFIAH
TAF
KIAH 061132Z 0612/0718 17006KT P6SM FEW025 BKN250
     FM061500 17013KT P6SM SCT035 SCT250
     FM061700 16013G19KT P6SM SCT040 SCT250
     FM070100 16008KT P6SM SCT015 SCT250
     FM071500 16010G16KT P6SM SCT030=



000
FTUS44 KHGX 061019 AAB
TAFCXO
TAF AMD
KCXO 061019Z 0610/0706 14004KT P6SM OVC028
      TEMPO 0610/0614 5SM BR BKN016
     FM061500 18012KT P6SM SCT030 SCT250
     FM070400 16007KT P6SM FEW025 SCT250=



000
FTUS44 KHGX 061019 AAB
TAFCXO
TAF AMD
KCXO 061019Z 0610/0706 14004KT P6SM OVC028
      TEMPO 0610/0614 5SM BR BKN016
     FM061500 18012KT P6SM SCT030 SCT250
     FM070400 16007KT P6SM FEW025 SCT250=



000
FTUS44 KHGX 061019 AAB
TAFCXO
TAF AMD
KCXO 061019Z 0610/0706 14004KT P6SM OVC028
      TEMPO 0610/0614 5SM BR BKN016
     FM061500 18012KT P6SM SCT030 SCT250
     FM070400 16007KT P6SM FEW025 SCT250=



000
FTUS44 KHGX 061019 AAB
TAFCXO
TAF AMD
KCXO 061019Z 0610/0706 14004KT P6SM OVC028
      TEMPO 0610/0614 5SM BR BKN016
     FM061500 18012KT P6SM SCT030 SCT250
     FM070400 16007KT P6SM FEW025 SCT250=



000
FTUS44 KHGX 060951 AAA
TAFCXO
TAF AMD
KCXO 060951Z 0610/0706 16006KT P6SM BKN029
      TEMPO 0610/0614 5SM BR BKN016
     FM061500 18012KT P6SM SCT030 SCT250
     FM070400 16007KT P6SM FEW025 SCT250=



000
FTUS44 KHGX 060951 AAA
TAFCXO
TAF AMD
KCXO 060951Z 0610/0706 16006KT P6SM BKN029
      TEMPO 0610/0614 5SM BR BKN016
     FM061500 18012KT P6SM SCT030 SCT250
     FM070400 16007KT P6SM FEW025 SCT250=



000
FTUS44 KHGX 060925 AAA
TAFHOU
TAF AMD
KHOU 060925Z 0609/0706 16004KT P6SM BKN250
     FM061500 17013KT P6SM SCT030 SCT250
     FM061700 16012G18KT P6SM SCT030 SCT250
     FM070100 16008KT P6SM SCT015 SCT250=



000
FTUS44 KHGX 060925 AAA
TAFIAH
TAF AMD
KIAH 060925Z 0609/0712 17006KT P6SM SCT016 BKN250
     FM061500 17013KT P6SM SCT030 SCT250
     FM061700 16012G18KT P6SM SCT030 SCT250
     FM070100 16008KT P6SM SCT015 SCT250=



000
FTUS44 KHGX 060925 AAA
TAFHOU
TAF AMD
KHOU 060925Z 0609/0706 16004KT P6SM BKN250
     FM061500 17013KT P6SM SCT030 SCT250
     FM061700 16012G18KT P6SM SCT030 SCT250
     FM070100 16008KT P6SM SCT015 SCT250=



000
FTUS44 KHGX 060925 AAA
TAFIAH
TAF AMD
KIAH 060925Z 0609/0712 17006KT P6SM SCT016 BKN250
     FM061500 17013KT P6SM SCT030 SCT250
     FM061700 16012G18KT P6SM SCT030 SCT250
     FM070100 16008KT P6SM SCT015 SCT250=



000
FTUS44 KHGX 060842 AAA
TAFUTS
TAF AMD
KUTS 060842Z 0609/0706 VRB05KT P6SM FEW025 SCT250
      TEMPO 0610/0613 BKN011
     FM061500 17014KT P6SM SCT030 SCT250
     FM061900 17016G22KT P6SM SCT045 SCT250=



000
FTUS44 KHGX 060842 AAA
TAFUTS
TAF AMD
KUTS 060842Z 0609/0706 VRB05KT P6SM FEW025 SCT250
      TEMPO 0610/0613 BKN011
     FM061500 17014KT P6SM SCT030 SCT250
     FM061900 17016G22KT P6SM SCT045 SCT250=



000
FTUS44 KHGX 060841 AAB
TAFCLL
TAF AMD
KCLL 060841Z 0609/0706 17010KT P6SM BKN009 OVC029
      TEMPO 0612/0614 SCT020
     FM061400 17014KT P6SM SCT030 SCT250
     FM061900 17016G22KT P6SM SCT045 SCT250=



000
FTUS44 KHGX 060841 AAB
TAFCLL
TAF AMD
KCLL 060841Z 0609/0706 17010KT P6SM BKN009 OVC029
      TEMPO 0612/0614 SCT020
     FM061400 17014KT P6SM SCT030 SCT250
     FM061900 17016G22KT P6SM SCT045 SCT250=



000
FTUS44 KHGX 060608 AAA
TAFCLL
TAF AMD
KCLL 060608Z 0606/0706 16009KT P6SM FEW014 SCT250
      TEMPO 0607/0609 BKN012
     FM060900 16009KT P6SM OVC011
      TEMPO 0612/0614 SCT020
     FM061400 17014KT P6SM SCT030 SCT250
     FM061900 17016G22KT P6SM SCT045 SCT250=



000
FTUS44 KHGX 060608 AAA
TAFCLL
TAF AMD
KCLL 060608Z 0606/0706 16009KT P6SM FEW014 SCT250
      TEMPO 0607/0609 BKN012
     FM060900 16009KT P6SM OVC011
      TEMPO 0612/0614 SCT020
     FM061400 17014KT P6SM SCT030 SCT250
     FM061900 17016G22KT P6SM SCT045 SCT250=



000
FTUS44 KHGX 060608 AAA
TAFCLL
TAF AMD
KCLL 060608Z 0606/0706 16009KT P6SM FEW014 SCT250
      TEMPO 0607/0609 BKN012
     FM060900 16009KT P6SM OVC011
      TEMPO 0612/0614 SCT020
     FM061400 17014KT P6SM SCT030 SCT250
     FM061900 17016G22KT P6SM SCT045 SCT250=



000
FTUS44 KHGX 060608 AAA
TAFCLL
TAF AMD
KCLL 060608Z 0606/0706 16009KT P6SM FEW014 SCT250
      TEMPO 0607/0609 BKN012
     FM060900 16009KT P6SM OVC011
      TEMPO 0612/0614 SCT020
     FM061400 17014KT P6SM SCT030 SCT250
     FM061900 17016G22KT P6SM SCT045 SCT250=



000
FTUS44 KHGX 060520
TAFSGR
TAF
KSGR 060520Z 0606/0706 15010KT P6SM OVC035
      TEMPO 0609/0612 BKN020
     FM061500 17013KT P6SM SCT030 SCT250
     FM061700 16012G18KT P6SM SCT040 SCT250
     FM070100 16008KT P6SM SCT015 SCT250=



000
FTUS44 KHGX 060520
TAFHOU
TAF
KHOU 060520Z 0606/0706 17005KT P6SM FEW020 BKN250
     FM061500 17013KT P6SM SCT030 SCT250
     FM061700 16012G18KT P6SM SCT030 SCT250
     FM070100 16008KT P6SM SCT015 SCT250=



000
FTUS44 KHGX 060520
TAFHOU
TAF
KHOU 060520Z 0606/0706 17005KT P6SM FEW020 BKN250
     FM061500 17013KT P6SM SCT030 SCT250
     FM061700 16012G18KT P6SM SCT030 SCT250
     FM070100 16008KT P6SM SCT015 SCT250=



000
FTUS44 KHGX 060520
TAFUTS
TAF
KUTS 060520Z 0606/0706 VRB05KT P6SM SCT015 BKN250
      TEMPO 0609/0613 BKN008 BKN015
     FM061500 17014KT P6SM SCT030 SCT250
     FM061900 17016G22KT P6SM SCT045 SCT250=



000
FTUS44 KHGX 060520
TAFIAH
TAF
KIAH 060520Z 0606/0712 17006KT P6SM FEW021 BKN250
     FM061500 17013KT P6SM SCT030 SCT250
     FM061700 16012G18KT P6SM SCT030 SCT250
     FM070100 16008KT P6SM SCT015 SCT250=



000
FTUS44 KHGX 060520
TAFSGR
TAF
KSGR 060520Z 0606/0706 15010KT P6SM OVC035
      TEMPO 0609/0612 BKN020
     FM061500 17013KT P6SM SCT030 SCT250
     FM061700 16012G18KT P6SM SCT040 SCT250
     FM070100 16008KT P6SM SCT015 SCT250=



000
FTUS44 KHGX 060520
TAFLBX
TAF
KLBX 060520Z 0606/0706 16003KT P6SM FEW020 FEW030
     FM061400 17015KT P6SM SCT025 SCT250
     FM070300 16004KT P6SM SCT020=



000
FTUS44 KHGX 060520
TAFGLS
TAF
KGLS 060520Z 0606/0706 15012KT P6SM FEW020=



000
FTUS44 KHGX 060520
TAFLBX
TAF
KLBX 060520Z 0606/0706 16003KT P6SM FEW020 FEW030
     FM061400 17015KT P6SM SCT025 SCT250
     FM070300 16004KT P6SM SCT020=



000
FTUS44 KHGX 060520
TAFGLS
TAF
KGLS 060520Z 0606/0706 15012KT P6SM FEW020=



000
FTUS44 KHGX 060520
TAFCLL
TAF
KCLL 060520Z 0606/0706 16010KT P6SM SCT015 SCT250
      TEMPO 0609/0613 BKN008 BKN015
     FM061500 17014KT P6SM SCT030 SCT250
     FM061900 17016G22KT P6SM SCT045 SCT250=



000
FTUS44 KHGX 060520
TAFCXO
TAF
KCXO 060520Z 0606/0706 16008KT P6SM BKN250
     FM060900 17004KT P6SM SCT015 SCT250
      TEMPO 0610/0614 5SM BR BKN015
     FM061500 18012KT P6SM SCT030 SCT250
     FM070400 16007KT P6SM FEW025 SCT250=



000
FTUS44 KHGX 060520
TAFIAH
TAF
KIAH 060520Z 0606/0712 17006KT P6SM FEW021 BKN250
     FM061500 17013KT P6SM SCT030 SCT250
     FM061700 16012G18KT P6SM SCT030 SCT250
     FM070100 16008KT P6SM SCT015 SCT250=



000
FTUS44 KHGX 060520
TAFCLL
TAF
KCLL 060520Z 0606/0706 16010KT P6SM SCT015 SCT250
      TEMPO 0609/0613 BKN008 BKN015
     FM061500 17014KT P6SM SCT030 SCT250
     FM061900 17016G22KT P6SM SCT045 SCT250=



000
FTUS44 KHGX 060520
TAFUTS
TAF
KUTS 060520Z 0606/0706 VRB05KT P6SM SCT015 BKN250
      TEMPO 0609/0613 BKN008 BKN015
     FM061500 17014KT P6SM SCT030 SCT250
     FM061900 17016G22KT P6SM SCT045 SCT250=



000
FTUS44 KHGX 060520
TAFCXO
TAF
KCXO 060520Z 0606/0706 16008KT P6SM BKN250
     FM060900 17004KT P6SM SCT015 SCT250
      TEMPO 0610/0614 5SM BR BKN015
     FM061500 18012KT P6SM SCT030 SCT250
     FM070400 16007KT P6SM FEW025 SCT250=



000
FTUS44 KHGX 060419 AAA
TAFGLS
TAF AMD
KGLS 060419Z 0604/0624 16012KT P6SM FEW020
     FM060600 17016KT P6SM SCT020 SCT250=



000
FTUS44 KHGX 060419 AAA
TAFGLS
TAF AMD
KGLS 060419Z 0604/0624 16012KT P6SM FEW020
     FM060600 17016KT P6SM SCT020 SCT250=



000
FTUS44 KHGX 060419 AAA
TAFGLS
TAF AMD
KGLS 060419Z 0604/0624 16012KT P6SM FEW020
     FM060600 17016KT P6SM SCT020 SCT250=



000
FTUS44 KHGX 060419 AAA
TAFGLS
TAF AMD
KGLS 060419Z 0604/0624 16012KT P6SM FEW020
     FM060600 17016KT P6SM SCT020 SCT250=



000
FTUS44 KHGX 060217 AAA
TAFCLL
TAF AMD
KCLL 060217Z 0602/0624 17009KT P6SM FEW020
     FM060600 17009KT P6SM BKN015
      TEMPO 0609/0613 BKN008
     FM061500 17014KT P6SM SCT030 SCT250=



000
FTUS44 KHGX 060217 AAA
TAFCLL
TAF AMD
KCLL 060217Z 0602/0624 17009KT P6SM FEW020
     FM060600 17009KT P6SM BKN015
      TEMPO 0609/0613 BKN008
     FM061500 17014KT P6SM SCT030 SCT250=



000
FTUS44 KHGX 060217 AAA
TAFCLL
TAF AMD
KCLL 060217Z 0602/0624 17009KT P6SM FEW020
     FM060600 17009KT P6SM BKN015
      TEMPO 0609/0613 BKN008
     FM061500 17014KT P6SM SCT030 SCT250=



000
FTUS44 KHGX 052357 AAA
TAFHOU
TAF AMD
KHOU 052357Z 0600/0624 17008KT P6SM FEW035 BKN250
     FM061500 17013KT P6SM SCT030 SCT250
     FM061700 16012G18KT P6SM SCT030 SCT250=



000
FTUS44 KHGX 052357 AAA
TAFHOU
TAF AMD
KHOU 052357Z 0600/0624 17008KT P6SM FEW035 BKN250
     FM061500 17013KT P6SM SCT030 SCT250
     FM061700 16012G18KT P6SM SCT030 SCT250=



000
FTUS44 KHGX 052335
TAFIAH
TAF
KIAH 052335Z 0600/0706 17010G15KT P6SM FEW045 SCT250
     FM060200 16007KT P6SM SCT020 SCT250
     FM061500 17013KT P6SM SCT030 SCT250
     FM061700 16012G18KT P6SM SCT030 SCT250=



000
FTUS44 KHGX 052335
TAFUTS
TAF
KUTS 052335Z 0600/0624 20008KT P6SM SKC
     FM060600 17009KT P6SM BKN015
      TEMPO 0609/0613 BKN008
     FM061500 17014KT P6SM SCT030 SCT250=



000
FTUS44 KHGX 052335
TAFCLL
TAF
KCLL 052335Z 0600/0624 19014KT P6SM FEW045 FEW070
     FM060600 17009KT P6SM BKN015
      TEMPO 0609/0613 BKN008
     FM061500 17014KT P6SM SCT030 SCT250=



000
FTUS44 KHGX 052335
TAFIAH
TAF
KIAH 052335Z 0600/0706 17010G15KT P6SM FEW045 SCT250
     FM060200 16007KT P6SM SCT020 SCT250
     FM061500 17013KT P6SM SCT030 SCT250
     FM061700 16012G18KT P6SM SCT030 SCT250=



000
FTUS44 KHGX 052335
TAFCXO
TAF
KCXO 052335Z 0600/0624 17011KT P6SM FEW050 SCT250
     FM060900 17004KT P6SM SCT015 SCT250
      TEMPO 0610/0614 5SM BR BKN015
     FM061500 18013KT P6SM SCT030 SCT250=



000
FTUS44 KHGX 052335
TAFLBX
TAF
KLBX 052335Z 0600/0624 19009KT P6SM SCT030 SCT250
     FM061400 18015KT P6SM SCT025 SCT250=



000
FTUS44 KHGX 052335
TAFGLS
TAF
KGLS 052335Z 0600/0624 18012KT P6SM FEW022
     FM060600 17016KT P6SM SCT020 SCT250=



000
FTUS44 KHGX 052335
TAFCXO
TAF
KCXO 052335Z 0600/0624 17011KT P6SM FEW050 SCT250
     FM060900 17004KT P6SM SCT015 SCT250
      TEMPO 0610/0614 5SM BR BKN015
     FM061500 18013KT P6SM SCT030 SCT250=



000
FTUS44 KHGX 052335
TAFHOU
TAF
KHOU 052335Z 0600/0624 20011G16KT P6SM FEW040 SCT250
     FM060200 16007KT P6SM SCT020 SCT250
     FM061500 17013KT P6SM SCT030 SCT250
     FM061700 16012G18KT P6SM SCT030 SCT250=



000
FTUS44 KHGX 052335
TAFSGR
TAF
KSGR 052335Z 0600/0624 18015KT P6SM SCT040
     FM060200 16007KT P6SM SCT020 SCT250
      TEMPO 0609/0613 BKN020
     FM061500 17015KT P6SM SCT030 SCT250=



000
FTUS44 KHGX 052335
TAFCLL
TAF
KCLL 052335Z 0600/0624 19014KT P6SM FEW045 FEW070
     FM060600 17009KT P6SM BKN015
      TEMPO 0609/0613 BKN008
     FM061500 17014KT P6SM SCT030 SCT250=



000
FTUS44 KHGX 052335
TAFUTS
TAF
KUTS 052335Z 0600/0624 20008KT P6SM SKC
     FM060600 17009KT P6SM BKN015
      TEMPO 0609/0613 BKN008
     FM061500 17014KT P6SM SCT030 SCT250=



000
FTUS44 KHGX 052335
TAFSGR
TAF
KSGR 052335Z 0600/0624 18015KT P6SM SCT040
     FM060200 16007KT P6SM SCT020 SCT250
      TEMPO 0609/0613 BKN020
     FM061500 17015KT P6SM SCT030 SCT250=



000
FTUS44 KHGX 052335
TAFCXO
TAF
KCXO 052335Z 0600/0624 17011KT P6SM FEW050 SCT250
     FM060900 17004KT P6SM SCT015 SCT250
      TEMPO 0610/0614 5SM BR BKN015
     FM061500 18013KT P6SM SCT030 SCT250=



000
FTUS44 KHGX 052335
TAFHOU
TAF
KHOU 052335Z 0600/0624 20011G16KT P6SM FEW040 SCT250
     FM060200 16007KT P6SM SCT020 SCT250
     FM061500 17013KT P6SM SCT030 SCT250
     FM061700 16012G18KT P6SM SCT030 SCT250=



000
FTUS44 KHGX 052335
TAFLBX
TAF
KLBX 052335Z 0600/0624 19009KT P6SM SCT030 SCT250
     FM061400 18015KT P6SM SCT025 SCT250=



000
FTUS44 KHGX 052335
TAFHOU
TAF
KHOU 052335Z 0600/0624 20011G16KT P6SM FEW040 SCT250
     FM060200 16007KT P6SM SCT020 SCT250
     FM061500 17013KT P6SM SCT030 SCT250
     FM061700 16012G18KT P6SM SCT030 SCT250=



000
FTUS44 KHGX 052335
TAFCXO
TAF
KCXO 052335Z 0600/0624 17011KT P6SM FEW050 SCT250
     FM060900 17004KT P6SM SCT015 SCT250
      TEMPO 0610/0614 5SM BR BKN015
     FM061500 18013KT P6SM SCT030 SCT250=



000
FTUS44 KHGX 052335
TAFSGR
TAF
KSGR 052335Z 0600/0624 18015KT P6SM SCT040
     FM060200 16007KT P6SM SCT020 SCT250
      TEMPO 0609/0613 BKN020
     FM061500 17015KT P6SM SCT030 SCT250=



000
FTUS44 KHGX 052335
TAFLBX
TAF
KLBX 052335Z 0600/0624 19009KT P6SM SCT030 SCT250
     FM061400 18015KT P6SM SCT025 SCT250=



000
FTUS44 KHGX 052335
TAFIAH
TAF
KIAH 052335Z 0600/0706 17010G15KT P6SM FEW045 SCT250
     FM060200 16007KT P6SM SCT020 SCT250
     FM061500 17013KT P6SM SCT030 SCT250
     FM061700 16012G18KT P6SM SCT030 SCT250=



000
FTUS44 KHGX 052335
TAFUTS
TAF
KUTS 052335Z 0600/0624 20008KT P6SM SKC
     FM060600 17009KT P6SM BKN015
      TEMPO 0609/0613 BKN008
     FM061500 17014KT P6SM SCT030 SCT250=



000
FTUS44 KHGX 052335
TAFCLL
TAF
KCLL 052335Z 0600/0624 19014KT P6SM FEW045 FEW070
     FM060600 17009KT P6SM BKN015
      TEMPO 0609/0613 BKN008
     FM061500 17014KT P6SM SCT030 SCT250=



000
FTUS44 KHGX 052335
TAFGLS
TAF
KGLS 052335Z 0600/0624 18012KT P6SM FEW022
     FM060600 17016KT P6SM SCT020 SCT250=



000
FTUS44 KHGX 052335
TAFIAH
TAF
KIAH 052335Z 0600/0706 17010G15KT P6SM FEW045 SCT250
     FM060200 16007KT P6SM SCT020 SCT250
     FM061500 17013KT P6SM SCT030 SCT250
     FM061700 16012G18KT P6SM SCT030 SCT250=



000
FTUS44 KHGX 052335
TAFGLS
TAF
KGLS 052335Z 0600/0624 18012KT P6SM FEW022
     FM060600 17016KT P6SM SCT020 SCT250=



000
FTUS44 KHGX 052335
TAFCLL
TAF
KCLL 052335Z 0600/0624 19014KT P6SM FEW045 FEW070
     FM060600 17009KT P6SM BKN015
      TEMPO 0609/0613 BKN008
     FM061500 17014KT P6SM SCT030 SCT250=



000
FTUS44 KHGX 052335
TAFSGR
TAF
KSGR 052335Z 0600/0624 18015KT P6SM SCT040
     FM060200 16007KT P6SM SCT020 SCT250
      TEMPO 0609/0613 BKN020
     FM061500 17015KT P6SM SCT030 SCT250=



000
FTUS44 KHGX 052305 AAB
TAFCLL
TAF AMD
KCLL 052305Z 0523/0618 19014G20KT P6SM FEW045 FEW070
     FM060700 17008KT P6SM BKN015
      TEMPO 0609/0613 BKN008
     FM061500 17014KT P6SM SCT030 SCT250=



000
FTUS44 KHGX 052305 AAB
TAFCLL
TAF AMD
KCLL 052305Z 0523/0618 19014G20KT P6SM FEW045 FEW070
     FM060700 17008KT P6SM BKN015
      TEMPO 0609/0613 BKN008
     FM061500 17014KT P6SM SCT030 SCT250=



000
FTUS44 KHGX 052305 AAB
TAFCLL
TAF AMD
KCLL 052305Z 0523/0618 19014G20KT P6SM FEW045 FEW070
     FM060700 17008KT P6SM BKN015
      TEMPO 0609/0613 BKN008
     FM061500 17014KT P6SM SCT030 SCT250=



000
FTUS44 KHGX 052305 AAB
TAFCLL
TAF AMD
KCLL 052305Z 0523/0618 19014G20KT P6SM FEW045 FEW070
     FM060700 17008KT P6SM BKN015
      TEMPO 0609/0613 BKN008
     FM061500 17014KT P6SM SCT030 SCT250=



000
FTUS44 KHGX 052304 AAA
TAFLBX
TAF AMD
KLBX 052304Z 0523/0618 19009KT P6SM SCT030
     FM060200 16008KT P6SM SCT020 SCT250
     FM061400 18015KT P6SM SCT025 SCT250=



000
FTUS44 KHGX 052304 AAA
TAFLBX
TAF AMD
KLBX 052304Z 0523/0618 19009KT P6SM SCT030
     FM060200 16008KT P6SM SCT020 SCT250
     FM061400 18015KT P6SM SCT025 SCT250=



000
FTUS44 KHGX 052304 AAA
TAFLBX
TAF AMD
KLBX 052304Z 0523/0618 19009KT P6SM SCT030
     FM060200 16008KT P6SM SCT020 SCT250
     FM061400 18015KT P6SM SCT025 SCT250=



000
FTUS44 KHGX 052304 AAA
TAFLBX
TAF AMD
KLBX 052304Z 0523/0618 19009KT P6SM SCT030
     FM060200 16008KT P6SM SCT020 SCT250
     FM061400 18015KT P6SM SCT025 SCT250=



000
FTUS44 KHGX 052303 AAB
TAFHOU
TAF AMD
KHOU 052303Z 0523/0618 19011G16KT P6SM FEW040 SCT250
     FM060200 16007KT P6SM SCT020 SCT250
     FM061500 18012KT P6SM SCT030 SCT250=



000
FTUS44 KHGX 052303 AAB
TAFHOU
TAF AMD
KHOU 052303Z 0523/0618 19011G16KT P6SM FEW040 SCT250
     FM060200 16007KT P6SM SCT020 SCT250
     FM061500 18012KT P6SM SCT030 SCT250=



000
FTUS44 KHGX 052303 AAB
TAFHOU
TAF AMD
KHOU 052303Z 0523/0618 19011G16KT P6SM FEW040 SCT250
     FM060200 16007KT P6SM SCT020 SCT250
     FM061500 18012KT P6SM SCT030 SCT250=



000
FTUS44 KHGX 052303 AAB
TAFHOU
TAF AMD
KHOU 052303Z 0523/0618 19011G16KT P6SM FEW040 SCT250
     FM060200 16007KT P6SM SCT020 SCT250
     FM061500 18012KT P6SM SCT030 SCT250=



000
FTUS44 KHGX 052120 AAA
TAFUTS
TAF AMD
KUTS 052120Z 0521/0618 19009KT P6SM FEW045 FEW060
     FM060200 16007KT P6SM SCT250
     FM060800 17005KT P6SM BKN015
      TEMPO 0609/0613 BKN008
     FM061500 17012KT P6SM SCT030 SCT250=



000
FTUS44 KHGX 052120 AAA
TAFUTS
TAF AMD
KUTS 052120Z 0521/0618 19009KT P6SM FEW045 FEW060
     FM060200 16007KT P6SM SCT250
     FM060800 17005KT P6SM BKN015
      TEMPO 0609/0613 BKN008
     FM061500 17012KT P6SM SCT030 SCT250=



000
FTUS44 KHGX 052120 AAA
TAFCLL
TAF AMD
KCLL 052120Z 0521/0618 17007KT P6SM SCT045
     FM060700 17008KT P6SM BKN015
      TEMPO 0609/0613 BKN008
     FM061500 17014KT P6SM SCT030 SCT250=



000
FTUS44 KHGX 052120 AAA
TAFCLL
TAF AMD
KCLL 052120Z 0521/0618 17007KT P6SM SCT045
     FM060700 17008KT P6SM BKN015
      TEMPO 0609/0613 BKN008
     FM061500 17014KT P6SM SCT030 SCT250=



000
FTUS44 KHGX 052056 AAA
TAFHOU
TAF AMD
KHOU 052056Z 0521/0618 17011G18KT P6SM SCT040 SCT250
     FM060200 16007KT P6SM SCT020 SCT250
     FM061500 18012KT P6SM SCT030 SCT250=



000
FTUS44 KHGX 052056 AAA
TAFHOU
TAF AMD
KHOU 052056Z 0521/0618 17011G18KT P6SM SCT040 SCT250
     FM060200 16007KT P6SM SCT020 SCT250
     FM061500 18012KT P6SM SCT030 SCT250=



000
FTUS44 KHGX 052054 AAA
TAFIAH
TAF AMD
KIAH 052054Z 0521/0624 17010G18KT P6SM FEW050 SCT250
     FM060200 16007KT P6SM SCT020 SCT250
     FM061500 17013KT P6SM SCT030 SCT250=



000
FTUS44 KHGX 052054 AAA
TAFIAH
TAF AMD
KIAH 052054Z 0521/0624 17010G18KT P6SM FEW050 SCT250
     FM060200 16007KT P6SM SCT020 SCT250
     FM061500 17013KT P6SM SCT030 SCT250=



000
FTUS44 KHGX 051720
TAFUTS
TAF
KUTS 051720Z 0518/0618 18010G20KT P6SM SCT040 SCT250
     FM060200 16007KT P6SM SCT250
     FM060800 17005KT P6SM BKN015
      TEMPO 0609/0613 BKN008
     FM061500 17012KT P6SM SCT030 SCT250=



000
FTUS44 KHGX 051720
TAFLBX
TAF
KLBX 051720Z 0518/0618 17014G22KT P6SM SCT035 SCT250
     FM060200 16008KT P6SM SCT020 SCT250
     FM061400 18015KT P6SM SCT025 SCT250=



000
FTUS44 KHGX 051720
TAFSGR
TAF
KSGR 051720Z 0518/0618 17012G20KT P6SM SCT040 SCT250
     FM060200 16007KT P6SM SCT020 SCT250
      TEMPO 0609/0613 BKN020
     FM061500 18014KT P6SM SCT030 SCT250=



000
FTUS44 KHGX 051720
TAFCLL
TAF
KCLL 051720Z 0518/0618 17012G20KT P6SM SCT040 SCT250
     FM060200 16010KT P6SM SCT250
     FM060700 17008KT P6SM BKN015
      TEMPO 0609/0613 BKN008
     FM061500 17014KT P6SM SCT030 SCT250=



000
FTUS44 KHGX 051720
TAFIAH
TAF
KIAH 051720Z 0518/0624 17011G20KT P6SM SCT040 SCT250
     FM060300 16007KT P6SM SCT020 SCT250
     FM061500 17013KT P6SM SCT030 SCT250=



000
FTUS44 KHGX 051720
TAFHOU
TAF
KHOU 051720Z 0518/0618 17011G20KT P6SM SCT040 SCT250
     FM060200 16007KT P6SM SCT020 SCT250
     FM061500 18012KT P6SM SCT030 SCT250=



000
FTUS44 KHGX 051720
TAFIAH
TAF
KIAH 051720Z 0518/0624 17011G20KT P6SM SCT040 SCT250
     FM060300 16007KT P6SM SCT020 SCT250
     FM061500 17013KT P6SM SCT030 SCT250=



000
FTUS44 KHGX 051720
TAFGLS
TAF
KGLS 051720Z 0518/0618 17013KT P6SM FEW030 SCT250
     FM060600 17016KT P6SM SCT020 SCT250=



000
FTUS44 KHGX 051720
TAFUTS
TAF
KUTS 051720Z 0518/0618 18010G20KT P6SM SCT040 SCT250
     FM060200 16007KT P6SM SCT250
     FM060800 17005KT P6SM BKN015
      TEMPO 0609/0613 BKN008
     FM061500 17012KT P6SM SCT030 SCT250=



000
FTUS44 KHGX 051720
TAFCXO
TAF
KCXO 051720Z 0518/0618 18011G20KT P6SM SCT040 SCT250
     FM060200 15007KT P6SM SCT250
     FM060900 17004KT P6SM SCT015 SCT250
      TEMPO 0610/0614 5SM BR BKN015
     FM061500 18013KT P6SM SCT030 SCT250=



000
FTUS44 KHGX 051720
TAFGLS
TAF
KGLS 051720Z 0518/0618 17013KT P6SM FEW030 SCT250
     FM060600 17016KT P6SM SCT020 SCT250=



000
FTUS44 KHGX 051720
TAFSGR
TAF
KSGR 051720Z 0518/0618 17012G20KT P6SM SCT040 SCT250
     FM060200 16007KT P6SM SCT020 SCT250
      TEMPO 0609/0613 BKN020
     FM061500 18014KT P6SM SCT030 SCT250=



000
FTUS44 KHGX 051720
TAFHOU
TAF
KHOU 051720Z 0518/0618 17011G20KT P6SM SCT040 SCT250
     FM060200 16007KT P6SM SCT020 SCT250
     FM061500 18012KT P6SM SCT030 SCT250=



000
FTUS44 KHGX 051720
TAFCLL
TAF
KCLL 051720Z 0518/0618 17012G20KT P6SM SCT040 SCT250
     FM060200 16010KT P6SM SCT250
     FM060700 17008KT P6SM BKN015
      TEMPO 0609/0613 BKN008
     FM061500 17014KT P6SM SCT030 SCT250=



000
FTUS44 KHGX 051720
TAFCLL
TAF
KCLL 051720Z 0518/0618 17012G20KT P6SM SCT040 SCT250
     FM060200 16010KT P6SM SCT250
     FM060700 17008KT P6SM BKN015
      TEMPO 0609/0613 BKN008
     FM061500 17014KT P6SM SCT030 SCT250=



000
FTUS44 KHGX 051720
TAFHOU
TAF
KHOU 051720Z 0518/0618 17011G20KT P6SM SCT040 SCT250
     FM060200 16007KT P6SM SCT020 SCT250
     FM061500 18012KT P6SM SCT030 SCT250=



000
FTUS44 KHGX 051720
TAFIAH
TAF
KIAH 051720Z 0518/0624 17011G20KT P6SM SCT040 SCT250
     FM060300 16007KT P6SM SCT020 SCT250
     FM061500 17013KT P6SM SCT030 SCT250=



000
FTUS44 KHGX 051720
TAFCXO
TAF
KCXO 051720Z 0518/0618 18011G20KT P6SM SCT040 SCT250
     FM060200 15007KT P6SM SCT250
     FM060900 17004KT P6SM SCT015 SCT250
      TEMPO 0610/0614 5SM BR BKN015
     FM061500 18013KT P6SM SCT030 SCT250=



000
FTUS44 KHGX 051720
TAFLBX
TAF
KLBX 051720Z 0518/0618 17014G22KT P6SM SCT035 SCT250
     FM060200 16008KT P6SM SCT020 SCT250
     FM061400 18015KT P6SM SCT025 SCT250=



000
FTUS44 KHGX 051720
TAFGLS
TAF
KGLS 051720Z 0518/0618 17013KT P6SM FEW030 SCT250
     FM060600 17016KT P6SM SCT020 SCT250=



000
FTUS44 KHGX 051456 AAA
TAFIAH
TAF AMD
KIAH 051456Z 0515/0618 19008KT P6SM SCT025 SCT250
      TEMPO 0515/0517 BKN025
     FM051700 17011KT P6SM SCT040 SCT250
     FM060100 16008KT P6SM SCT025 SCT250
     FM061500 17010G16KT P6SM SCT030=



000
FTUS44 KHGX 051456 AAA
TAFIAH
TAF AMD
KIAH 051456Z 0515/0618 19008KT P6SM SCT025 SCT250
      TEMPO 0515/0517 BKN025
     FM051700 17011KT P6SM SCT040 SCT250
     FM060100 16008KT P6SM SCT025 SCT250
     FM061500 17010G16KT P6SM SCT030=



000
FTUS44 KHGX 051454 AAA
TAFSGR
TAF AMD
KSGR 051454Z 0515/0612 19011KT P6SM BKN025
     FM051700 18013KT P6SM SCT035 SCT250
     FM060200 15006KT P6SM SCT025 SCT250
      TEMPO 0610/0612 BKN018=



000
FTUS44 KHGX 051454 AAA
TAFSGR
TAF AMD
KSGR 051454Z 0515/0612 19011KT P6SM BKN025
     FM051700 18013KT P6SM SCT035 SCT250
     FM060200 15006KT P6SM SCT025 SCT250
      TEMPO 0610/0612 BKN018=



000
FTUS44 KHGX 051431 AAA
TAFHOU
TAF AMD
KHOU 051431Z 0515/0612 18007KT P6SM BKN025 BKN250
     FM051600 18010KT P6SM SCT030 SCT250
     FM051800 17011G16KT P6SM SCT040 BKN060
     FM060200 15006KT P6SM SCT025 SCT250=



000
FTUS44 KHGX 051431 AAA
TAFHOU
TAF AMD
KHOU 051431Z 0515/0612 18007KT P6SM BKN025 BKN250
     FM051600 18010KT P6SM SCT030 SCT250
     FM051800 17011G16KT P6SM SCT040 BKN060
     FM060200 15006KT P6SM SCT025 SCT250=



000
FTUS44 KHGX 051431 AAA
TAFHOU
TAF AMD
KHOU 051431Z 0515/0612 18007KT P6SM BKN025 BKN250
     FM051600 18010KT P6SM SCT030 SCT250
     FM051800 17011G16KT P6SM SCT040 BKN060
     FM060200 15006KT P6SM SCT025 SCT250=



000
FTUS44 KHGX 051430 AAA
TAFCXO
TAF AMD
KCXO 051430Z 0514/0612 18008KT P6SM BKN015 BKN025
     FM051600 18010KT P6SM SCT030 BKN250
     FM051800 17011G17KT P6SM SCT040 BKN060 BKN250
     FM060300 15007KT P6SM SCT025 SCT250=



000
FTUS44 KHGX 051430 AAA
TAFCXO
TAF AMD
KCXO 051430Z 0514/0612 18008KT P6SM BKN015 BKN025
     FM051600 18010KT P6SM SCT030 BKN250
     FM051800 17011G17KT P6SM SCT040 BKN060 BKN250
     FM060300 15007KT P6SM SCT025 SCT250=



000
FTUS44 KHGX 051348 AAA
TAFUTS
TAF AMD
KUTS 051348Z 0514/0612 18008KT P6SM BKN015
     FM051500 17010G15KT P6SM SCT030 SCT250
     FM060100 16006KT P6SM SCT035 BKN250
      TEMPO 0609/0612 BKN015=



000
FTUS44 KHGX 051348 AAA
TAFUTS
TAF AMD
KUTS 051348Z 0514/0612 18008KT P6SM BKN015
     FM051500 17010G15KT P6SM SCT030 SCT250
     FM060100 16006KT P6SM SCT035 BKN250
      TEMPO 0609/0612 BKN015=



000
FTUS44 KHGX 051330 AAA
TAFCLL
TAF AMD
KCLL 051330Z 0514/0612 18008KT P6SM BKN008 BKN025
      TEMPO 0514/0515 SCT008
     FM051500 17013KT P6SM SCT030 SCT250
     FM060100 16010KT P6SM SCT035 BKN250
     FM060700 17006KT P6SM BKN015
      TEMPO 0609/0612 OVC009=



000
FTUS44 KHGX 051330 AAA
TAFCLL
TAF AMD
KCLL 051330Z 0514/0612 18008KT P6SM BKN008 BKN025
      TEMPO 0514/0515 SCT008
     FM051500 17013KT P6SM SCT030 SCT250
     FM060100 16010KT P6SM SCT035 BKN250
     FM060700 17006KT P6SM BKN015
      TEMPO 0609/0612 OVC009=



000
FTUS44 KHGX 051130
TAFCLL
TAF
KCLL 051130Z 0512/0612 18007KT P6SM OVC006
      TEMPO 0512/0513 18004KT 6SM BR BKN012
     FM051300 18011KT P6SM SCT030 SCT250
     FM051700 17013G19KT P6SM SCT050 SCT250
     FM060100 16010KT P6SM SCT035 BKN250
     FM060700 17006KT P6SM BKN015
      TEMPO 0609/0612 OVC009=



000
FTUS44 KHGX 051130
TAFIAH
TAF
KIAH 051130Z 0512/0618 17003KT P6SM FEW016 BKN250
     FM051500 18009KT P6SM SCT030 SCT250
     FM051800 17011G16KT P6SM SCT040 BKN060
     FM060100 16008KT P6SM SCT025 SCT250
     FM061500 17010G16KT P6SM SCT030=



000
FTUS44 KHGX 051130
TAFGLS
TAF
KGLS 051130Z 0512/0612 17010KT P6SM VCSH FEW018
     FM051330 18010KT P6SM FEW027
     FM051800 17014KT P6SM SCT035
     FM060600 17014KT P6SM VCSH SCT020=



000
FTUS44 KHGX 051130
TAFCXO
TAF
KCXO 051130Z 0512/0612 00000KT 2SM BR SCT024
      TEMPO 0513/0514 6SM BR FEW030
     FM051400 18007KT P6SM SCT025 SCT250
     FM051800 17011G17KT P6SM SCT040 BKN060 BKN250
     FM060300 15007KT P6SM SCT025 SCT250=



000
FTUS44 KHGX 051130
TAFCLL
TAF
KCLL 051130Z 0512/0612 18007KT P6SM OVC006
      TEMPO 0512/0513 18004KT 6SM BR BKN012
     FM051300 18011KT P6SM SCT030 SCT250
     FM051700 17013G19KT P6SM SCT050 SCT250
     FM060100 16010KT P6SM SCT035 BKN250
     FM060700 17006KT P6SM BKN015
      TEMPO 0609/0612 OVC009=



000
FTUS44 KHGX 051130
TAFLBX
TAF
KLBX 051130Z 0512/0612 18005KT P6SM FEW027 SCT250
     FM051400 18010KT P6SM SCT035 SCT250
     FM051800 18014KT P6SM BKN045
     FM060200 16008KT P6SM SCT030
     FM060500 17006KT P6SM BKN026=



000
FTUS44 KHGX 051130
TAFIAH
TAF
KIAH 051130Z 0512/0618 17003KT P6SM FEW016 BKN250
     FM051500 18009KT P6SM SCT030 SCT250
     FM051800 17011G16KT P6SM SCT040 BKN060
     FM060100 16008KT P6SM SCT025 SCT250
     FM061500 17010G16KT P6SM SCT030=



000
FTUS44 KHGX 051130
TAFLBX
TAF
KLBX 051130Z 0512/0612 18005KT P6SM FEW027 SCT250
     FM051400 18010KT P6SM SCT035 SCT250
     FM051800 18014KT P6SM BKN045
     FM060200 16008KT P6SM SCT030
     FM060500 17006KT P6SM BKN026=



000
FTUS44 KHGX 051130
TAFHOU
TAF
KHOU 051130Z 0512/0612 14003KT P6SM FEW020 SCT250
     FM051500 18009KT P6SM SCT030 SCT250
     FM051800 17011G16KT P6SM SCT040 BKN060
     FM060200 15006KT P6SM SCT025 SCT250=



000
FTUS44 KHGX 051130
TAFGLS
TAF
KGLS 051130Z 0512/0612 17010KT P6SM VCSH FEW018
     FM051330 18010KT P6SM FEW027
     FM051800 17014KT P6SM SCT035
     FM060600 17014KT P6SM VCSH SCT020=



000
FTUS44 KHGX 051130
TAFHOU
TAF
KHOU 051130Z 0512/0612 14003KT P6SM FEW020 SCT250
     FM051500 18009KT P6SM SCT030 SCT250
     FM051800 17011G16KT P6SM SCT040 BKN060
     FM060200 15006KT P6SM SCT025 SCT250=



000
FTUS44 KHGX 051130
TAFUTS
TAF
KUTS 051130Z 0512/0612 19004KT 6SM BR SCT014
      TEMPO 0512/0514 BKN020
     FM051400 18006KT P6SM SCT030 SCT250
     FM051700 17010G15KT P6SM SCT040 SCT250
     FM060100 16006KT P6SM SCT035 BKN250
      TEMPO 0609/0612 BKN015=



000
FTUS44 KHGX 051130
TAFUTS
TAF
KUTS 051130Z 0512/0612 19004KT 6SM BR SCT014
      TEMPO 0512/0514 BKN020
     FM051400 18006KT P6SM SCT030 SCT250
     FM051700 17010G15KT P6SM SCT040 SCT250
     FM060100 16006KT P6SM SCT035 BKN250
      TEMPO 0609/0612 BKN015=



000
FTUS44 KHGX 051130
TAFIAH
TAF
KIAH 051130Z 0512/0618 17003KT P6SM FEW016 BKN250
     FM051500 18009KT P6SM SCT030 SCT250
     FM051800 17011G16KT P6SM SCT040 BKN060
     FM060100 16008KT P6SM SCT025 SCT250
     FM061500 17010G16KT P6SM SCT030=



000
FTUS44 KHGX 051130
TAFGLS
TAF
KGLS 051130Z 0512/0612 17010KT P6SM VCSH FEW018
     FM051330 18010KT P6SM FEW027
     FM051800 17014KT P6SM SCT035
     FM060600 17014KT P6SM VCSH SCT020=



000
FTUS44 KHGX 051130
TAFSGR
TAF
KSGR 051130Z 0512/0612 16005KT P6SM SCT030
     FM051500 18010KT P6SM SCT035 SCT250
     FM051800 17011G16KT P6SM SCT040 BKN060
     FM060200 15006KT P6SM SCT025 SCT250
      TEMPO 0610/0612 BKN018=



000
FTUS44 KHGX 051130
TAFLBX
TAF
KLBX 051130Z 0512/0612 18005KT P6SM FEW027 SCT250
     FM051400 18010KT P6SM SCT035 SCT250
     FM051800 18014KT P6SM BKN045
     FM060200 16008KT P6SM SCT030
     FM060500 17006KT P6SM BKN026=



000
FTUS44 KHGX 051130
TAFHOU
TAF
KHOU 051130Z 0512/0612 14003KT P6SM FEW020 SCT250
     FM051500 18009KT P6SM SCT030 SCT250
     FM051800 17011G16KT P6SM SCT040 BKN060
     FM060200 15006KT P6SM SCT025 SCT250=



000
FTUS44 KHGX 051130
TAFCLL
TAF
KCLL 051130Z 0512/0612 18007KT P6SM OVC006
      TEMPO 0512/0513 18004KT 6SM BR BKN012
     FM051300 18011KT P6SM SCT030 SCT250
     FM051700 17013G19KT P6SM SCT050 SCT250
     FM060100 16010KT P6SM SCT035 BKN250
     FM060700 17006KT P6SM BKN015
      TEMPO 0609/0612 OVC009=



000
FTUS44 KHGX 051130
TAFUTS
TAF
KUTS 051130Z 0512/0612 19004KT 6SM BR SCT014
      TEMPO 0512/0514 BKN020
     FM051400 18006KT P6SM SCT030 SCT250
     FM051700 17010G15KT P6SM SCT040 SCT250
     FM060100 16006KT P6SM SCT035 BKN250
      TEMPO 0609/0612 BKN015=



000
FTUS44 KHGX 051130
TAFIAH
TAF
KIAH 051130Z 0512/0618 17003KT P6SM FEW016 BKN250
     FM051500 18009KT P6SM SCT030 SCT250
     FM051800 17011G16KT P6SM SCT040 BKN060
     FM060100 16008KT P6SM SCT025 SCT250
     FM061500 17010G16KT P6SM SCT030=



000
FTUS44 KHGX 051130
TAFSGR
TAF
KSGR 051130Z 0512/0612 16005KT P6SM SCT030
     FM051500 18010KT P6SM SCT035 SCT250
     FM051800 17011G16KT P6SM SCT040 BKN060
     FM060200 15006KT P6SM SCT025 SCT250
      TEMPO 0610/0612 BKN018=



000
FTUS44 KHGX 051130
TAFCXO
TAF
KCXO 051130Z 0512/0612 00000KT 2SM BR SCT024
      TEMPO 0513/0514 6SM BR FEW030
     FM051400 18007KT P6SM SCT025 SCT250
     FM051800 17011G17KT P6SM SCT040 BKN060 BKN250
     FM060300 15007KT P6SM SCT025 SCT250=



000
FTUS44 KHGX 051130
TAFLBX
TAF
KLBX 051130Z 0512/0612 18005KT P6SM FEW027 SCT250
     FM051400 18010KT P6SM SCT035 SCT250
     FM051800 18014KT P6SM BKN045
     FM060200 16008KT P6SM SCT030
     FM060500 17006KT P6SM BKN026=



000
FTUS44 KHGX 051130
TAFGLS
TAF
KGLS 051130Z 0512/0612 17010KT P6SM VCSH FEW018
     FM051330 18010KT P6SM FEW027
     FM051800 17014KT P6SM SCT035
     FM060600 17014KT P6SM VCSH SCT020=



000
FTUS44 KHGX 051130
TAFCXO
TAF
KCXO 051130Z 0512/0612 00000KT 2SM BR SCT024
      TEMPO 0513/0514 6SM BR FEW030
     FM051400 18007KT P6SM SCT025 SCT250
     FM051800 17011G17KT P6SM SCT040 BKN060 BKN250
     FM060300 15007KT P6SM SCT025 SCT250=



000
FTUS44 KHGX 051130
TAFSGR
TAF
KSGR 051130Z 0512/0612 16005KT P6SM SCT030
     FM051500 18010KT P6SM SCT035 SCT250
     FM051800 17011G16KT P6SM SCT040 BKN060
     FM060200 15006KT P6SM SCT025 SCT250
      TEMPO 0610/0612 BKN018=



000
FTUS44 KHGX 051130
TAFHOU
TAF
KHOU 051130Z 0512/0612 14003KT P6SM FEW020 SCT250
     FM051500 18009KT P6SM SCT030 SCT250
     FM051800 17011G16KT P6SM SCT040 BKN060
     FM060200 15006KT P6SM SCT025 SCT250=



000
FTUS44 KHGX 051130
TAFUTS
TAF
KUTS 051130Z 0512/0612 19004KT 6SM BR SCT014
      TEMPO 0512/0514 BKN020
     FM051400 18006KT P6SM SCT030 SCT250
     FM051700 17010G15KT P6SM SCT040 SCT250
     FM060100 16006KT P6SM SCT035 BKN250
      TEMPO 0609/0612 BKN015=



000
FTUS44 KHGX 051130
TAFCXO
TAF
KCXO 051130Z 0512/0612 00000KT 2SM BR SCT024
      TEMPO 0513/0514 6SM BR FEW030
     FM051400 18007KT P6SM SCT025 SCT250
     FM051800 17011G17KT P6SM SCT040 BKN060 BKN250
     FM060300 15007KT P6SM SCT025 SCT250=



000
FTUS44 KHGX 051130
TAFCLL
TAF
KCLL 051130Z 0512/0612 18007KT P6SM OVC006
      TEMPO 0512/0513 18004KT 6SM BR BKN012
     FM051300 18011KT P6SM SCT030 SCT250
     FM051700 17013G19KT P6SM SCT050 SCT250
     FM060100 16010KT P6SM SCT035 BKN250
     FM060700 17006KT P6SM BKN015
      TEMPO 0609/0612 OVC009=



000
FTUS44 KHGX 051130
TAFSGR
TAF
KSGR 051130Z 0512/0612 16005KT P6SM SCT030
     FM051500 18010KT P6SM SCT035 SCT250
     FM051800 17011G16KT P6SM SCT040 BKN060
     FM060200 15006KT P6SM SCT025 SCT250
      TEMPO 0610/0612 BKN018=



000
FTUS44 KHGX 051007 AAA
TAFIAH
TAF AMD
KIAH 051007Z 0510/0612 17003KT P6SM BKN250
     FM051500 18009KT P6SM SCT030 SCT250
     FM051800 17011G16KT P6SM SCT040 BKN060
     FM060300 16010KT P6SM SCT025 SCT250=



000
FTUS44 KHGX 051007 AAA
TAFIAH
TAF AMD
KIAH 051007Z 0510/0612 17003KT P6SM BKN250
     FM051500 18009KT P6SM SCT030 SCT250
     FM051800 17011G16KT P6SM SCT040 BKN060
     FM060300 16010KT P6SM SCT025 SCT250=



000
FTUS44 KHGX 050931 AAB
TAFCLL
TAF AMD
KCLL 050931Z 0510/0606 16007KT P6SM OVC008
      TEMPO 0511/0513 18004KT 6SM BR BKN012
     FM051300 18011KT P6SM SCT030 SCT250
     FM051700 17013G19KT P6SM SCT050 SCT250
     FM060100 16010KT P6SM SCT035 BKN250=



000
FTUS44 KHGX 050931 AAB
TAFCLL
TAF AMD
KCLL 050931Z 0510/0606 16007KT P6SM OVC008
      TEMPO 0511/0513 18004KT 6SM BR BKN012
     FM051300 18011KT P6SM SCT030 SCT250
     FM051700 17013G19KT P6SM SCT050 SCT250
     FM060100 16010KT P6SM SCT035 BKN250=



000
FTUS44 KHGX 050929 AAA
TAFCXO
TAF AMD
KCXO 050929Z 0509/0606 00000KT 4SM BR SCT250
      TEMPO 0509/0512 1SM BR
     FM051400 18007KT P6SM SCT025 SCT250
     FM051800 17011G17KT P6SM SCT040 BKN060 BKN250
     FM060300 15007KT P6SM SCT025 SCT250=



000
FTUS44 KHGX 050836 AAA
TAFCLL
TAF AMD
KCLL 050836Z 0509/0606 18007KT P6SM SCT020 SCT250
      TEMPO 0509/0513 18004KT 6SM BR BKN016
     FM051500 18011KT P6SM SCT030 SCT250
     FM051700 17013G19KT P6SM SCT040 SCT250
     FM060100 16010KT P6SM SCT035 BKN250=



000
FTUS44 KHGX 050836 AAA
TAFGLS
TAF AMD
KGLS 050836Z 0509/0606 18009KT P6SM FEW018 SCT250
     FM051020 18010KT P6SM VCSH SCT020 SCT250
     FM051330 18010KT P6SM FEW027
     FM051800 17014KT P6SM SCT035=



000
FTUS44 KHGX 050836 AAA
TAFGLS
TAF AMD
KGLS 050836Z 0509/0606 18009KT P6SM FEW018 SCT250
     FM051020 18010KT P6SM VCSH SCT020 SCT250
     FM051330 18010KT P6SM FEW027
     FM051800 17014KT P6SM SCT035=



000
FTUS44 KHGX 050836 AAA
TAFCLL
TAF AMD
KCLL 050836Z 0509/0606 18007KT P6SM SCT020 SCT250
      TEMPO 0509/0513 18004KT 6SM BR BKN016
     FM051500 18011KT P6SM SCT030 SCT250
     FM051700 17013G19KT P6SM SCT040 SCT250
     FM060100 16010KT P6SM SCT035 BKN250=



000
FTUS44 KHGX 050709 AAA
TAFSGR
TAF AMD
KSGR 050709Z 0507/0606 16006KT P6SM SCT035
      TEMPO 0507/0509 BKN030
     FM051500 18009KT P6SM SCT030 SCT250
     FM051800 17011G16KT P6SM SCT040 BKN060
     FM060300 15006KT P6SM SCT025 SCT250=



000
FTUS44 KHGX 050708 AAA
TAFLBX
TAF AMD
KLBX 050708Z 0507/0606 00000KT 5SM BR BKN250
     FM051400 18010KT P6SM SCT025 SCT250
     FM051800 18014KT P6SM BKN045
     FM060200 16008KT P6SM BKN025=



000
FTUS44 KHGX 050708 AAA
TAFLBX
TAF AMD
KLBX 050708Z 0507/0606 00000KT 5SM BR BKN250
     FM051400 18010KT P6SM SCT025 SCT250
     FM051800 18014KT P6SM BKN045
     FM060200 16008KT P6SM BKN025=



000
FTUS44 KHGX 050520
TAFGLS
TAF
KGLS 050520Z 0506/0606 17008KT P6SM SCT250
     FM051000 18010KT P6SM SCT020 SCT250
     FM051800 17014KT P6SM SCT035=



000
FTUS44 KHGX 050520
TAFLBX
TAF
KLBX 050520Z 0506/0606 17003KT P6SM SCT020 SCT250
     FM051400 18010KT P6SM SCT025 SCT250
     FM051800 18014KT P6SM BKN045
     FM060200 16008KT P6SM BKN025=



000
FTUS44 KHGX 050520
TAFIAH
TAF
KIAH 050520Z 0506/0612 16004KT P6SM BKN250
     FM051500 18009KT P6SM SCT030 SCT250
     FM051800 17011G16KT P6SM SCT040 BKN060
     FM060300 16010KT P6SM SCT025 SCT250=



000
FTUS44 KHGX 050520
TAFSGR
TAF
KSGR 050520Z 0506/0606 17006KT P6SM SKC
     FM051500 18009KT P6SM SCT030 SCT250
     FM051800 17011G16KT P6SM SCT040 BKN060
     FM060300 15006KT P6SM SCT025 SCT250=



000
FTUS44 KHGX 050520
TAFUTS
TAF
KUTS 050520Z 0506/0606 00000KT P6SM SCT020 BKN250
      TEMPO 0510/0514 6SM BR BKN020
     FM051500 18006KT P6SM SCT030 SCT250
     FM051700 17010G15KT P6SM SCT040 SCT250
     FM060100 16006KT P6SM SCT035 BKN250=



000
FTUS44 KHGX 050520
TAFCXO
TAF
KCXO 050520Z 0506/0606 00000KT 4SM BR SCT014 BKN250
     FM051400 18007KT P6SM SCT025 SCT250
     FM051800 17011G17KT P6SM SCT040 BKN060 BKN250
     FM060300 15007KT P6SM SCT025 SCT250=



000
FTUS44 KHGX 050520
TAFSGR
TAF
KSGR 050520Z 0506/0606 17006KT P6SM SKC
     FM051500 18009KT P6SM SCT030 SCT250
     FM051800 17011G16KT P6SM SCT040 BKN060
     FM060300 15006KT P6SM SCT025 SCT250=



000
FTUS44 KHGX 050520
TAFLBX
TAF
KLBX 050520Z 0506/0606 17003KT P6SM SCT020 SCT250
     FM051400 18010KT P6SM SCT025 SCT250
     FM051800 18014KT P6SM BKN045
     FM060200 16008KT P6SM BKN025=



000
FTUS44 KHGX 050520
TAFHOU
TAF
KHOU 050520Z 0506/0606 15003KT P6SM FEW020 SCT250
     FM051500 18009KT P6SM SCT030 SCT250
     FM051800 17011G16KT P6SM SCT040 BKN060
     FM060300 15006KT P6SM SCT025 SCT250=



000
FTUS44 KHGX 050520
TAFGLS
TAF
KGLS 050520Z 0506/0606 17008KT P6SM SCT250
     FM051000 18010KT P6SM SCT020 SCT250
     FM051800 17014KT P6SM SCT035=



000
FTUS44 KHGX 050520
TAFCXO
TAF
KCXO 050520Z 0506/0606 00000KT 4SM BR SCT014 BKN250
     FM051400 18007KT P6SM SCT025 SCT250
     FM051800 17011G17KT P6SM SCT040 BKN060 BKN250
     FM060300 15007KT P6SM SCT025 SCT250=



000
FTUS44 KHGX 050520
TAFCLL
TAF
KCLL 050520Z 0506/0606 18007KT P6SM SCT020 SCT250
      TEMPO 0509/0513 18004KT 6SM BR BKN020
     FM051500 18011KT P6SM SCT030 SCT250
     FM051700 17013G19KT P6SM SCT040 SCT250
     FM060100 16010KT P6SM SCT035 BKN250=



000
FTUS44 KHGX 050520
TAFIAH
TAF
KIAH 050520Z 0506/0612 16004KT P6SM BKN250
     FM051500 18009KT P6SM SCT030 SCT250
     FM051800 17011G16KT P6SM SCT040 BKN060
     FM060300 16010KT P6SM SCT025 SCT250=



000
FTUS44 KHGX 050520
TAFCXO
TAF
KCXO 050520Z 0506/0606 00000KT 4SM BR SCT014 BKN250
     FM051400 18007KT P6SM SCT025 SCT250
     FM051800 17011G17KT P6SM SCT040 BKN060 BKN250
     FM060300 15007KT P6SM SCT025 SCT250=



000
FTUS44 KHGX 050520
TAFUTS
TAF
KUTS 050520Z 0506/0606 00000KT P6SM SCT020 BKN250
      TEMPO 0510/0514 6SM BR BKN020
     FM051500 18006KT P6SM SCT030 SCT250
     FM051700 17010G15KT P6SM SCT040 SCT250
     FM060100 16006KT P6SM SCT035 BKN250=



000
FTUS44 KHGX 050520
TAFCLL
TAF
KCLL 050520Z 0506/0606 18007KT P6SM SCT020 SCT250
      TEMPO 0509/0513 18004KT 6SM BR BKN020
     FM051500 18011KT P6SM SCT030 SCT250
     FM051700 17013G19KT P6SM SCT040 SCT250
     FM060100 16010KT P6SM SCT035 BKN250=



000
FTUS44 KHGX 050520
TAFIAH
TAF
KIAH 050520Z 0506/0612 16004KT P6SM BKN250
     FM051500 18009KT P6SM SCT030 SCT250
     FM051800 17011G16KT P6SM SCT040 BKN060
     FM060300 16010KT P6SM SCT025 SCT250=



000
FTUS44 KHGX 050520
TAFHOU
TAF
KHOU 050520Z 0506/0606 15003KT P6SM FEW020 SCT250
     FM051500 18009KT P6SM SCT030 SCT250
     FM051800 17011G16KT P6SM SCT040 BKN060
     FM060300 15006KT P6SM SCT025 SCT250=



000
FTUS44 KHGX 050520
TAFCLL
TAF
KCLL 050520Z 0506/0606 18007KT P6SM SCT020 SCT250
      TEMPO 0509/0513 18004KT 6SM BR BKN020
     FM051500 18011KT P6SM SCT030 SCT250
     FM051700 17013G19KT P6SM SCT040 SCT250
     FM060100 16010KT P6SM SCT035 BKN250=



000
FTUS44 KHGX 050520
TAFUTS
TAF
KUTS 050520Z 0506/0606 00000KT P6SM SCT020 BKN250
      TEMPO 0510/0514 6SM BR BKN020
     FM051500 18006KT P6SM SCT030 SCT250
     FM051700 17010G15KT P6SM SCT040 SCT250
     FM060100 16006KT P6SM SCT035 BKN250=



000
FTUS44 KHGX 050520
TAFLBX
TAF
KLBX 050520Z 0506/0606 17003KT P6SM SCT020 SCT250
     FM051400 18010KT P6SM SCT025 SCT250
     FM051800 18014KT P6SM BKN045
     FM060200 16008KT P6SM BKN025=



000
FTUS44 KHGX 050520
TAFHOU
TAF
KHOU 050520Z 0506/0606 15003KT P6SM FEW020 SCT250
     FM051500 18009KT P6SM SCT030 SCT250
     FM051800 17011G16KT P6SM SCT040 BKN060
     FM060300 15006KT P6SM SCT025 SCT250=



000
FTUS44 KHGX 050520
TAFLBX
TAF
KLBX 050520Z 0506/0606 17003KT P6SM SCT020 SCT250
     FM051400 18010KT P6SM SCT025 SCT250
     FM051800 18014KT P6SM BKN045
     FM060200 16008KT P6SM BKN025=



000
FTUS44 KHGX 050520
TAFHOU
TAF
KHOU 050520Z 0506/0606 15003KT P6SM FEW020 SCT250
     FM051500 18009KT P6SM SCT030 SCT250
     FM051800 17011G16KT P6SM SCT040 BKN060
     FM060300 15006KT P6SM SCT025 SCT250=



000
FTUS44 KHGX 050520
TAFSGR
TAF
KSGR 050520Z 0506/0606 17006KT P6SM SKC
     FM051500 18009KT P6SM SCT030 SCT250
     FM051800 17011G16KT P6SM SCT040 BKN060
     FM060300 15006KT P6SM SCT025 SCT250=



000
FTUS44 KHGX 050520
TAFGLS
TAF
KGLS 050520Z 0506/0606 17008KT P6SM SCT250
     FM051000 18010KT P6SM SCT020 SCT250
     FM051800 17014KT P6SM SCT035=



000
FTUS44 KHGX 050520
TAFSGR
TAF
KSGR 050520Z 0506/0606 17006KT P6SM SKC
     FM051500 18009KT P6SM SCT030 SCT250
     FM051800 17011G16KT P6SM SCT040 BKN060
     FM060300 15006KT P6SM SCT025 SCT250=



000
FTUS44 KHGX 050520
TAFGLS
TAF
KGLS 050520Z 0506/0606 17008KT P6SM SCT250
     FM051000 18010KT P6SM SCT020 SCT250
     FM051800 17014KT P6SM SCT035=



000
FTUS44 KHGX 050520
TAFUTS
TAF
KUTS 050520Z 0506/0606 00000KT P6SM SCT020 BKN250
      TEMPO 0510/0514 6SM BR BKN020
     FM051500 18006KT P6SM SCT030 SCT250
     FM051700 17010G15KT P6SM SCT040 SCT250
     FM060100 16006KT P6SM SCT035 BKN250=



000
FTUS44 KHGX 050520
TAFIAH
TAF
KIAH 050520Z 0506/0612 16004KT P6SM BKN250
     FM051500 18009KT P6SM SCT030 SCT250
     FM051800 17011G16KT P6SM SCT040 BKN060
     FM060300 16010KT P6SM SCT025 SCT250=



000
FTUS44 KHGX 050520
TAFCXO
TAF
KCXO 050520Z 0506/0606 00000KT 4SM BR SCT014 BKN250
     FM051400 18007KT P6SM SCT025 SCT250
     FM051800 17011G17KT P6SM SCT040 BKN060 BKN250
     FM060300 15007KT P6SM SCT025 SCT250=



000
FTUS44 KHGX 050520
TAFCLL
TAF
KCLL 050520Z 0506/0606 18007KT P6SM SCT020 SCT250
      TEMPO 0509/0513 18004KT 6SM BR BKN020
     FM051500 18011KT P6SM SCT030 SCT250
     FM051700 17013G19KT P6SM SCT040 SCT250
     FM060100 16010KT P6SM SCT035 BKN250=



000
FTUS44 KHGX 050412 AAC
TAFCXO
TAF AMD
KCXO 050412Z 0504/0524 15005KT P6SM SKC
      TEMPO 0504/0506 4SM FU
     FM051000 00000KT 6SM BR SCT015 SCT250
     FM051400 18007KT P6SM SCT025 SCT250
     FM051800 17011G17KT P6SM SCT040 BKN060 BKN250=



000
FTUS44 KHGX 050412 AAC
TAFCXO
TAF AMD
KCXO 050412Z 0504/0524 15005KT P6SM SKC
      TEMPO 0504/0506 4SM FU
     FM051000 00000KT 6SM BR SCT015 SCT250
     FM051400 18007KT P6SM SCT025 SCT250
     FM051800 17011G17KT P6SM SCT040 BKN060 BKN250=



000
FTUS44 KHGX 050412 AAC
TAFCXO
TAF AMD
KCXO 050412Z 0504/0524 15005KT P6SM SKC
      TEMPO 0504/0506 4SM FU
     FM051000 00000KT 6SM BR SCT015 SCT250
     FM051400 18007KT P6SM SCT025 SCT250
     FM051800 17011G17KT P6SM SCT040 BKN060 BKN250=



000
FTUS44 KHGX 050310 AAB
TAFSGR
TAF AMD
KSGR 050310Z 0503/0524 16006KT P6SM SKC
     FM050400 17003KT P6SM FEW020 SCT250
     FM051500 18009KT P6SM SCT030 SCT250
     FM051800 17011G16KT P6SM SCT040 BKN060=



000
FTUS44 KHGX 050310 AAB
TAFSGR
TAF AMD
KSGR 050310Z 0503/0524 16006KT P6SM SKC
     FM050400 17003KT P6SM FEW020 SCT250
     FM051500 18009KT P6SM SCT030 SCT250
     FM051800 17011G16KT P6SM SCT040 BKN060=



000
FTUS44 KHGX 050309 AAB
TAFCXO
TAF AMD
KCXO 050309Z 0503/0524 15005KT P6SM SKC
      TEMPO 0503/0504 4SM FU
     FM051000 00000KT 6SM BR SCT015 SCT250
     FM051400 18007KT P6SM SCT025 SCT250
     FM051800 17011G17KT P6SM SCT040 BKN060 BKN250=



000
FTUS44 KHGX 050151 AAA
TAFGLS
TAF AMD
KGLS 050151Z 0502/0524 17011KT P6SM FEW030
     FM051000 18010KT P6SM VCSH SCT020 SCT250
     FM051500 18011KT P6SM SCT025 SCT250
     FM051800 17013G19KT P6SM SCT035=



000
FTUS44 KHGX 050151 AAA
TAFGLS
TAF AMD
KGLS 050151Z 0502/0524 17011KT P6SM FEW030
     FM051000 18010KT P6SM VCSH SCT020 SCT250
     FM051500 18011KT P6SM SCT025 SCT250
     FM051800 17013G19KT P6SM SCT035=



000
FTUS44 KHGX 050150 AAA
TAFHOU
TAF AMD
KHOU 050150Z 0502/0524 17007KT P6SM FEW025 SCT160 SCT250
     FM050400 17003KT P6SM FEW020 SCT250
     FM051500 18009KT P6SM SCT030 SCT250
     FM051800 17011G16KT P6SM SCT040 BKN060=



000
FTUS44 KHGX 050150 AAA
TAFHOU
TAF AMD
KHOU 050150Z 0502/0524 17007KT P6SM FEW025 SCT160 SCT250
     FM050400 17003KT P6SM FEW020 SCT250
     FM051500 18009KT P6SM SCT030 SCT250
     FM051800 17011G16KT P6SM SCT040 BKN060=



000
FTUS44 KHGX 050150 AAA
TAFHOU
TAF AMD
KHOU 050150Z 0502/0524 17007KT P6SM FEW025 SCT160 SCT250
     FM050400 17003KT P6SM FEW020 SCT250
     FM051500 18009KT P6SM SCT030 SCT250
     FM051800 17011G16KT P6SM SCT040 BKN060=



000
FTUS44 KHGX 050150 AAA
TAFIAH
TAF AMD
KIAH 050150Z 0502/0606 20006KT P6SM FEW035 BKN250
     FM050400 17003KT P6SM FEW020 SCT250
     FM051500 18009KT P6SM SCT030 SCT250
     FM051800 17011G16KT P6SM SCT040 BKN060
     FM060300 16010KT P6SM SCT025 OVC120=



000
FTUS44 KHGX 050150 AAA
TAFIAH
TAF AMD
KIAH 050150Z 0502/0606 20006KT P6SM FEW035 BKN250
     FM050400 17003KT P6SM FEW020 SCT250
     FM051500 18009KT P6SM SCT030 SCT250
     FM051800 17011G16KT P6SM SCT040 BKN060
     FM060300 16010KT P6SM SCT025 OVC120=



000
FTUS44 KHGX 050149 AAA
TAFCXO
TAF AMD
KCXO 050149Z 0502/0524 15005KT P6SM SKC
     FM051000 00000KT 6SM BR SCT015 SCT250
     FM051400 18007KT P6SM SCT025 SCT250
     FM051800 17011G17KT P6SM SCT040 BKN060 BKN250=



000
FTUS44 KHGX 050149 AAA
TAFCXO
TAF AMD
KCXO 050149Z 0502/0524 15005KT P6SM SKC
     FM051000 00000KT 6SM BR SCT015 SCT250
     FM051400 18007KT P6SM SCT025 SCT250
     FM051800 17011G17KT P6SM SCT040 BKN060 BKN250=



000
FTUS44 KHGX 050011 AAA
TAFSGR
TAF AMD
KSGR 050011Z 0500/0524 19013KT P6SM FEW035
     FM050400 17003KT P6SM FEW020 SCT250
     FM051500 18009KT P6SM SCT030 SCT250
     FM051800 17011G16KT P6SM SCT040 BKN060=



000
FTUS44 KHGX 050011 AAA
TAFUTS
TAF AMD
KUTS 050011Z 0500/0524 18008KT P6SM SCT035
     FM050100 17005KT P6SM SCT035 SCT250
     FM051500 18011KT P6SM SCT030 SCT250=



000
FTUS44 KHGX 050011 AAA
TAFUTS
TAF AMD
KUTS 050011Z 0500/0524 18008KT P6SM SCT035
     FM050100 17005KT P6SM SCT035 SCT250
     FM051500 18011KT P6SM SCT030 SCT250=



000
FTUS44 KHGX 050011 AAA
TAFSGR
TAF AMD
KSGR 050011Z 0500/0524 19013KT P6SM FEW035
     FM050400 17003KT P6SM FEW020 SCT250
     FM051500 18009KT P6SM SCT030 SCT250
     FM051800 17011G16KT P6SM SCT040 BKN060=



000
FTUS44 KHGX 050011 AAA
TAFSGR
TAF AMD
KSGR 050011Z 0500/0524 19013KT P6SM FEW035
     FM050400 17003KT P6SM FEW020 SCT250
     FM051500 18009KT P6SM SCT030 SCT250
     FM051800 17011G16KT P6SM SCT040 BKN060=



000
FTUS44 KHGX 042335
TAFSGR
TAF
KSGR 042335Z 0500/0524 20013KT P6SM FEW035
     FM050400 17003KT P6SM FEW020 SCT250
     FM051500 18009KT P6SM SCT030 SCT250
     FM051800 17011G16KT P6SM SCT040 BKN060=



000
FTUS44 KHGX 042335
TAFUTS
TAF
KUTS 042335Z 0500/0524 19012G18KT P6SM SKC
     FM050100 17005KT P6SM SCT035 SCT250
     FM051500 18011KT P6SM SCT030 SCT250=



000
FTUS44 KHGX 042335
TAFHOU
TAF
KHOU 042335Z 0500/0524 18008G14KT P6SM VCSH SCT030 SCT060 BKN130
     FM050400 17003KT P6SM FEW020 SCT250
     FM051500 18009KT P6SM SCT030 SCT250
     FM051800 17011G16KT P6SM SCT040 BKN060=



000
FTUS44 KHGX 042335
TAFCXO
TAF
KCXO 042335Z 0500/0524 14009KT P6SM VCSH SCT040 SCT050 BKN070
     FM051000 00000KT 6SM BR SCT015 SCT250
     FM051400 18007KT P6SM SCT025 SCT250
     FM051800 17011G17KT P6SM SCT040 BKN060 BKN250=



000
FTUS44 KHGX 042335
TAFGLS
TAF
KGLS 042335Z 0500/0524 18010KT P6SM VCSH FEW026
     FM051000 18010KT P6SM VCSH SCT020 SCT250
     FM051500 18011KT P6SM SCT025 SCT250
     FM051800 17013G19KT P6SM SCT035=



000
FTUS44 KHGX 042335
TAFLBX
TAF
KLBX 042335Z 0500/0524 19009KT P6SM FEW045
     FM050200 18003KT P6SM SCT020 SCT250
     FM051400 18010KT P6SM SCT025 SCT250
     FM051800 18014KT P6SM BKN045=



000
FTUS44 KHGX 042335
TAFIAH
TAF
KIAH 042335Z 0500/0606 17008KT P6SM VCSH SCT040 SCT120 BKN220
     FM050400 17003KT P6SM FEW020 SCT250
     FM051500 18009KT P6SM SCT030 SCT250
     FM051800 17011G16KT P6SM SCT040 BKN060
     FM060300 16010KT P6SM SCT025 OVC120=



000
FTUS44 KHGX 042335
TAFUTS
TAF
KUTS 042335Z 0500/0524 19012G18KT P6SM SKC
     FM050100 17005KT P6SM SCT035 SCT250
     FM051500 18011KT P6SM SCT030 SCT250=



000
FTUS44 KHGX 042335
TAFIAH
TAF
KIAH 042335Z 0500/0606 17008KT P6SM VCSH SCT040 SCT120 BKN220
     FM050400 17003KT P6SM FEW020 SCT250
     FM051500 18009KT P6SM SCT030 SCT250
     FM051800 17011G16KT P6SM SCT040 BKN060
     FM060300 16010KT P6SM SCT025 OVC120=



000
FTUS44 KHGX 042335
TAFGLS
TAF
KGLS 042335Z 0500/0524 18010KT P6SM VCSH FEW026
     FM051000 18010KT P6SM VCSH SCT020 SCT250
     FM051500 18011KT P6SM SCT025 SCT250
     FM051800 17013G19KT P6SM SCT035=



000
FTUS44 KHGX 042335
TAFSGR
TAF
KSGR 042335Z 0500/0524 20013KT P6SM FEW035
     FM050400 17003KT P6SM FEW020 SCT250
     FM051500 18009KT P6SM SCT030 SCT250
     FM051800 17011G16KT P6SM SCT040 BKN060=



000
FTUS44 KHGX 042335
TAFCXO
TAF
KCXO 042335Z 0500/0524 14009KT P6SM VCSH SCT040 SCT050 BKN070
     FM051000 00000KT 6SM BR SCT015 SCT250
     FM051400 18007KT P6SM SCT025 SCT250
     FM051800 17011G17KT P6SM SCT040 BKN060 BKN250=



000
FTUS44 KHGX 042335
TAFCLL
TAF
KCLL 042335Z 0500/0524 18010KT P6SM VCSH FEW040
     FM050100 17005KT P6SM SCT035 SCT250
     FM051500 18011KT P6SM SCT030 SCT250=



000
FTUS44 KHGX 042335
TAFHOU
TAF
KHOU 042335Z 0500/0524 18008G14KT P6SM VCSH SCT030 SCT060 BKN130
     FM050400 17003KT P6SM FEW020 SCT250
     FM051500 18009KT P6SM SCT030 SCT250
     FM051800 17011G16KT P6SM SCT040 BKN060=



000
FTUS44 KHGX 042335
TAFIAH
TAF
KIAH 042335Z 0500/0606 17008KT P6SM VCSH SCT040 SCT120 BKN220
     FM050400 17003KT P6SM FEW020 SCT250
     FM051500 18009KT P6SM SCT030 SCT250
     FM051800 17011G16KT P6SM SCT040 BKN060
     FM060300 16010KT P6SM SCT025 OVC120=



000
FTUS44 KHGX 042335
TAFLBX
TAF
KLBX 042335Z 0500/0524 19009KT P6SM FEW045
     FM050200 18003KT P6SM SCT020 SCT250
     FM051400 18010KT P6SM SCT025 SCT250
     FM051800 18014KT P6SM BKN045=



000
FTUS44 KHGX 042335
TAFCXO
TAF
KCXO 042335Z 0500/0524 14009KT P6SM VCSH SCT040 SCT050 BKN070
     FM051000 00000KT 6SM BR SCT015 SCT250
     FM051400 18007KT P6SM SCT025 SCT250
     FM051800 17011G17KT P6SM SCT040 BKN060 BKN250=



000
FTUS44 KHGX 042335
TAFSGR
TAF
KSGR 042335Z 0500/0524 20013KT P6SM FEW035
     FM050400 17003KT P6SM FEW020 SCT250
     FM051500 18009KT P6SM SCT030 SCT250
     FM051800 17011G16KT P6SM SCT040 BKN060=



000
FTUS44 KHGX 042335
TAFUTS
TAF
KUTS 042335Z 0500/0524 19012G18KT P6SM SKC
     FM050100 17005KT P6SM SCT035 SCT250
     FM051500 18011KT P6SM SCT030 SCT250=



000
FTUS44 KHGX 042335
TAFHOU
TAF
KHOU 042335Z 0500/0524 18008G14KT P6SM VCSH SCT030 SCT060 BKN130
     FM050400 17003KT P6SM FEW020 SCT250
     FM051500 18009KT P6SM SCT030 SCT250
     FM051800 17011G16KT P6SM SCT040 BKN060=



000
FTUS44 KHGX 042335
TAFGLS
TAF
KGLS 042335Z 0500/0524 18010KT P6SM VCSH FEW026
     FM051000 18010KT P6SM VCSH SCT020 SCT250
     FM051500 18011KT P6SM SCT025 SCT250
     FM051800 17013G19KT P6SM SCT035=



000
FTUS44 KHGX 042335
TAFCLL
TAF
KCLL 042335Z 0500/0524 18010KT P6SM VCSH FEW040
     FM050100 17005KT P6SM SCT035 SCT250
     FM051500 18011KT P6SM SCT030 SCT250=



000
FTUS44 KHGX 042335
TAFLBX
TAF
KLBX 042335Z 0500/0524 19009KT P6SM FEW045
     FM050200 18003KT P6SM SCT020 SCT250
     FM051400 18010KT P6SM SCT025 SCT250
     FM051800 18014KT P6SM BKN045=



000
FTUS44 KHGX 042335
TAFCLL
TAF
KCLL 042335Z 0500/0524 18010KT P6SM VCSH FEW040
     FM050100 17005KT P6SM SCT035 SCT250
     FM051500 18011KT P6SM SCT030 SCT250=



000
FTUS44 KHGX 042335
TAFHOU
TAF
KHOU 042335Z 0500/0524 18008G14KT P6SM VCSH SCT030 SCT060 BKN130
     FM050400 17003KT P6SM FEW020 SCT250
     FM051500 18009KT P6SM SCT030 SCT250
     FM051800 17011G16KT P6SM SCT040 BKN060=



000
FTUS44 KHGX 042335
TAFUTS
TAF
KUTS 042335Z 0500/0524 19012G18KT P6SM SKC
     FM050100 17005KT P6SM SCT035 SCT250
     FM051500 18011KT P6SM SCT030 SCT250=



000
FTUS44 KHGX 042335
TAFSGR
TAF
KSGR 042335Z 0500/0524 20013KT P6SM FEW035
     FM050400 17003KT P6SM FEW020 SCT250
     FM051500 18009KT P6SM SCT030 SCT250
     FM051800 17011G16KT P6SM SCT040 BKN060=



000
FTUS44 KHGX 042335
TAFGLS
TAF
KGLS 042335Z 0500/0524 18010KT P6SM VCSH FEW026
     FM051000 18010KT P6SM VCSH SCT020 SCT250
     FM051500 18011KT P6SM SCT025 SCT250
     FM051800 17013G19KT P6SM SCT035=



000
FTUS44 KHGX 042335
TAFCXO
TAF
KCXO 042335Z 0500/0524 14009KT P6SM VCSH SCT040 SCT050 BKN070
     FM051000 00000KT 6SM BR SCT015 SCT250
     FM051400 18007KT P6SM SCT025 SCT250
     FM051800 17011G17KT P6SM SCT040 BKN060 BKN250=



000
FTUS44 KHGX 042335
TAFLBX
TAF
KLBX 042335Z 0500/0524 19009KT P6SM FEW045
     FM050200 18003KT P6SM SCT020 SCT250
     FM051400 18010KT P6SM SCT025 SCT250
     FM051800 18014KT P6SM BKN045=



000
FTUS44 KHGX 042335
TAFIAH
TAF
KIAH 042335Z 0500/0606 17008KT P6SM VCSH SCT040 SCT120 BKN220
     FM050400 17003KT P6SM FEW020 SCT250
     FM051500 18009KT P6SM SCT030 SCT250
     FM051800 17011G16KT P6SM SCT040 BKN060
     FM060300 16010KT P6SM SCT025 OVC120=



000
FTUS44 KHGX 042335
TAFCLL
TAF
KCLL 042335Z 0500/0524 18010KT P6SM VCSH FEW040
     FM050100 17005KT P6SM SCT035 SCT250
     FM051500 18011KT P6SM SCT030 SCT250=



000
FTUS44 KHGX 042258 AAC
TAFCXO
TAF AMD
KCXO 042258Z 0423/0518 14007G16KT P6SM -TSRA FEW040 BKN050CB BKN070
     FM050000 17005KT P6SM VCTS SCT040CB SCT250
     FM051000 00000KT 5SM BR SCT015 SCT250
     FM051400 18007KT P6SM SCT025 SCT250=



000
FTUS44 KHGX 042258 AAC
TAFCXO
TAF AMD
KCXO 042258Z 0423/0518 14007G16KT P6SM -TSRA FEW040 BKN050CB BKN070
     FM050000 17005KT P6SM VCTS SCT040CB SCT250
     FM051000 00000KT 5SM BR SCT015 SCT250
     FM051400 18007KT P6SM SCT025 SCT250=



000
FTUS44 KHGX 042258 AAC
TAFCXO
TAF AMD
KCXO 042258Z 0423/0518 14007G16KT P6SM -TSRA FEW040 BKN050CB BKN070
     FM050000 17005KT P6SM VCTS SCT040CB SCT250
     FM051000 00000KT 5SM BR SCT015 SCT250
     FM051400 18007KT P6SM SCT025 SCT250=



000
FTUS44 KHGX 042258 AAC
TAFCXO
TAF AMD
KCXO 042258Z 0423/0518 14007G16KT P6SM -TSRA FEW040 BKN050CB BKN070
     FM050000 17005KT P6SM VCTS SCT040CB SCT250
     FM051000 00000KT 5SM BR SCT015 SCT250
     FM051400 18007KT P6SM SCT025 SCT250=



000
FTUS44 KHGX 042218 CCA
TAFSGR
TAF COR
KSGR 042218Z 0422/0518 20012G17KT P6SM SCT035 SCT045
     FM050200 17004KT P6SM SCT020 SCT250
     FM051400 18008KT P6SM SCT025 SCT250=



000
FTUS44 KHGX 042218 CCA
TAFSGR
TAF COR
KSGR 042218Z 0422/0518 20012G17KT P6SM SCT035 SCT045
     FM050200 17004KT P6SM SCT020 SCT250
     FM051400 18008KT P6SM SCT025 SCT250=



000
FTUS44 KHGX 042217 AAA
TAFSGR
TAF AMD
KSGR 042217Z 0422/0518 17012G17KT P6SM SCT035 BKN250
     FM050200 17004KT P6SM SCT020 SCT250
     FM051400 18008KT P6SM SCT025 SCT250=



000
FTUS44 KHGX 042217 AAA
TAFSGR
TAF AMD
KSGR 042217Z 0422/0518 17012G17KT P6SM SCT035 BKN250
     FM050200 17004KT P6SM SCT020 SCT250
     FM051400 18008KT P6SM SCT025 SCT250=



000
FTUS44 KHGX 042217 AAA
TAFSGR
TAF AMD
KSGR 042217Z 0422/0518 17012G17KT P6SM SCT035 BKN250
     FM050200 17004KT P6SM SCT020 SCT250
     FM051400 18008KT P6SM SCT025 SCT250=



000
FTUS44 KHGX 042217 AAA
TAFSGR
TAF AMD
KSGR 042217Z 0422/0518 17012G17KT P6SM SCT035 BKN250
     FM050200 17004KT P6SM SCT020 SCT250
     FM051400 18008KT P6SM SCT025 SCT250=



000
FTUS44 KHGX 042204 AAB
TAFUTS
TAF AMD
KUTS 042204Z 0422/0518 22008G14KT P6SM VCTS SCT040CB
      TEMPO 0422/0424 VRB13G21KT
     FM050100 17004KT P6SM SCT025 SCT250
     FM051500 18010KT P6SM SCT030 SCT250=



000
FTUS44 KHGX 042204 AAB
TAFUTS
TAF AMD
KUTS 042204Z 0422/0518 22008G14KT P6SM VCTS SCT040CB
      TEMPO 0422/0424 VRB13G21KT
     FM050100 17004KT P6SM SCT025 SCT250
     FM051500 18010KT P6SM SCT030 SCT250=



    US Dept of Commerce
    National Oceanic and Atmospheric Administration
    National Weather Service
    1325 East West Highway
    Silver Spring, MD 20910
    Page Author: NWS Internet Services Team
Disclaimer
Information Quality
Credits
Glossary
Privacy Policy
Freedom of Information Act (FOIA)
About Us
Career Opportunities